FDX1829 KMEM-EDDF
Flight info
| Callsign | FDX1829 |
|---|---|
| Flight time | 8h 24m |
| Altitude | 31000 |
| Route | GENEH7 NUYID IIU APE FAALS KELIE SYR CABCI DANOL N363B JOOPY/M084F340 NATT BEXET/N0478F350 LIFFY UL975 WAL M16 DOLAS NAVPI NOLRU DIXAT DIXAT1B |
| Aircraft | B77L/H-SDE1E2E3FGHIJ2J3J4J5M1RWXY/LB1D1 |
Departure
| Time | 2026-04-16 03:27 |
|---|---|
| Airport | Memphis International Airport (KMEM) |
Arrival
| Time | 2026-04-16 11:51 |
|---|---|
| Airport | Frankfurt Main Airport (EDDF) |
| Time | Latitude | Longitude | Altitude | Speed | Heading |
|---|---|---|---|---|---|
| 2026-04-16 03:07 | 35.06263 | -89.97353 | 335 ft | 0 kts | 359° |
| 2026-04-16 03:12 | 35.06250 | -89.97353 | 331 ft | 4 kts | 358° |
| 2026-04-16 03:12 | 35.06224 | -89.97353 | 333 ft | 4 kts | 3° |
| 2026-04-16 03:12 | 35.06205 | -89.97354 | 330 ft | 2 kts | 63° |
| 2026-04-16 03:13 | 35.06198 | -89.97377 | 330 ft | 3 kts | 82° |
| 2026-04-16 03:13 | 35.06196 | -89.97408 | 330 ft | 4 kts | 88° |
| 2026-04-16 03:13 | 35.06196 | -89.97440 | 331 ft | 4 kts | 91° |
| 2026-04-16 03:13 | 35.06197 | -89.97474 | 331 ft | 4 kts | 92° |
| 2026-04-16 03:14 | 35.06198 | -89.97507 | 330 ft | 4 kts | 91° |
| 2026-04-16 03:14 | 35.06197 | -89.97536 | 330 ft | 2 kts | 118° |
| 2026-04-16 03:14 | 35.06209 | -89.97542 | 333 ft | 3 kts | 180° |
| 2026-04-16 03:14 | 35.06224 | -89.97542 | 330 ft | 0 kts | 182° |
| 2026-04-16 03:21 | 35.06220 | -89.97542 | 330 ft | 2 kts | 182° |
| 2026-04-16 03:21 | 35.06201 | -89.97543 | 330 ft | 4 kts | 181° |
| 2026-04-16 03:21 | 35.06169 | -89.97544 | 332 ft | 6 kts | 180° |
| 2026-04-16 03:22 | 35.06122 | -89.97544 | 331 ft | 8 kts | 180° |
| 2026-04-16 03:22 | 35.06066 | -89.97543 | 333 ft | 8 kts | 180° |
| 2026-04-16 03:22 | 35.06008 | -89.97540 | 332 ft | 8 kts | 174° |
| 2026-04-16 03:22 | 35.05951 | -89.97527 | 333 ft | 8 kts | 166° |
| 2026-04-16 03:23 | 35.05896 | -89.97507 | 333 ft | 8 kts | 162° |
| 2026-04-16 03:23 | 35.05840 | -89.97489 | 333 ft | 8 kts | 171° |
| 2026-04-16 03:23 | 35.05782 | -89.97486 | 333 ft | 8 kts | 181° |
| 2026-04-16 03:23 | 35.05724 | -89.97487 | 332 ft | 8 kts | 181° |
| 2026-04-16 03:24 | 35.05667 | -89.97489 | 332 ft | 8 kts | 180° |
| 2026-04-16 03:24 | 35.05609 | -89.97489 | 332 ft | 8 kts | 179° |
| 2026-04-16 03:24 | 35.05551 | -89.97487 | 331 ft | 8 kts | 179° |
| 2026-04-16 03:24 | 35.05496 | -89.97503 | 328 ft | 8 kts | 213° |
| 2026-04-16 03:25 | 35.05452 | -89.97559 | 326 ft | 10 kts | 229° |
| 2026-04-16 03:25 | 35.05401 | -89.97610 | 326 ft | 9 kts | 197° |
| 2026-04-16 03:25 | 35.05367 | -89.97615 | 327 ft | 0 kts | 181° |
| 2026-04-16 03:26 | 35.05226 | -89.97614 | 325 ft | 52 kts | 179° |
| 2026-04-16 03:26 | 35.04626 | -89.97600 | 325 ft | 118 kts | 179° |
| 2026-04-16 03:26 | 35.03609 | -89.97579 | 326 ft | 172 kts | 179° |
| 2026-04-16 03:26 | 35.02324 | -89.97562 | 580 ft | 190 kts | 180° |
| 2026-04-16 03:27 | 35.01012 | -89.97551 | 1148 ft | 191 kts | 181° |
| 2026-04-16 03:27 | 34.99644 | -89.97507 | 1551 ft | 198 kts | 181° |
| 2026-04-16 03:27 | 34.98269 | -89.97213 | 2071 ft | 203 kts | 163° |
| 2026-04-16 03:27 | 34.96891 | -89.96540 | 2232 ft | 226 kts | 163° |
| 2026-04-16 03:28 | 34.95364 | -89.95797 | 2465 ft | 243 kts | 156° |
| 2026-04-16 03:28 | 34.94046 | -89.94461 | 2897 ft | 259 kts | 131° |
| 2026-04-16 03:28 | 34.93075 | -89.92563 | 3473 ft | 267 kts | 120° |
| 2026-04-16 03:28 | 34.92623 | -89.90325 | 3979 ft | 281 kts | 94° |
| 2026-04-16 03:29 | 34.92640 | -89.87917 | 4494 ft | 286 kts | 95° |
| 2026-04-16 03:29 | 34.92592 | -89.85471 | 5082 ft | 290 kts | 94° |
| 2026-04-16 03:29 | 34.92981 | -89.83043 | 5549 ft | 301 kts | 64° |
| 2026-04-16 03:29 | 34.94068 | -89.80842 | 6048 ft | 305 kts | 59° |
| 2026-04-16 03:30 | 34.95168 | -89.78626 | 6707 ft | 305 kts | 61° |
| 2026-04-16 03:30 | 34.96257 | -89.76405 | 7303 ft | 305 kts | 56° |
| 2026-04-16 03:30 | 34.97795 | -89.74642 | 7729 ft | 308 kts | 24° |
| 2026-04-16 03:30 | 34.99759 | -89.73656 | 8238 ft | 307 kts | 19° |
| 2026-04-16 03:31 | 35.01759 | -89.72689 | 8822 ft | 309 kts | 20° |
| 2026-04-16 03:31 | 35.03752 | -89.71707 | 9482 ft | 310 kts | 20° |
| 2026-04-16 03:31 | 35.05760 | -89.70716 | 10064 ft | 312 kts | 20° |
| 2026-04-16 03:31 | 35.07776 | -89.69720 | 10387 ft | 324 kts | 20° |
| 2026-04-16 03:32 | 35.09936 | -89.68652 | 10531 ft | 344 kts | 20° |
| 2026-04-16 03:32 | 35.12221 | -89.67519 | 10672 ft | 363 kts | 21° |
| 2026-04-16 03:34 | 35.30385 | -89.58449 | 14054 ft | 423 kts | 20° |
| 2026-04-16 03:34 | 35.33129 | -89.57074 | 14609 ft | 427 kts | 20° |
| 2026-04-16 03:34 | 35.35892 | -89.55689 | 15168 ft | 431 kts | 20° |
| 2026-04-16 03:34 | 35.38682 | -89.54290 | 15713 ft | 435 kts | 20° |
| 2026-04-16 03:35 | 35.41463 | -89.52812 | 16192 ft | 437 kts | 27° |
| 2026-04-16 03:35 | 35.43888 | -89.50502 | 16481 ft | 449 kts | 50° |
| 2026-04-16 03:35 | 35.45589 | -89.47360 | 16975 ft | 448 kts | 61° |
| 2026-04-16 03:35 | 35.47169 | -89.44018 | 17412 ft | 454 kts | 60° |
| 2026-04-16 03:36 | 35.48816 | -89.40696 | 17930 ft | 458 kts | 59° |
| 2026-04-16 03:36 | 35.50503 | -89.37363 | 18458 ft | 462 kts | 59° |
| 2026-04-16 03:36 | 35.52217 | -89.33984 | 18834 ft | 468 kts | 59° |
| 2026-04-16 03:36 | 35.53939 | -89.30562 | 19253 ft | 473 kts | 58° |
| 2026-04-16 03:37 | 35.55845 | -89.27260 | 19685 ft | 476 kts | 51° |
| 2026-04-16 03:37 | 35.58006 | -89.24154 | 20129 ft | 480 kts | 47° |
| 2026-04-16 03:37 | 35.60282 | -89.21141 | 20594 ft | 483 kts | 46° |
| 2026-04-16 03:37 | 35.62605 | -89.18130 | 21062 ft | 486 kts | 46° |
| 2026-04-16 03:38 | 35.64937 | -89.15083 | 21478 ft | 491 kts | 46° |
| 2026-04-16 03:38 | 35.67234 | -89.12026 | 21871 ft | 495 kts | 47° |
| 2026-04-16 03:38 | 35.69560 | -89.08876 | 22278 ft | 499 kts | 47° |
| 2026-04-16 03:38 | 35.71889 | -89.05677 | 22712 ft | 503 kts | 48° |
| 2026-04-16 03:39 | 35.74222 | -89.02447 | 23114 ft | 507 kts | 48° |
| 2026-04-16 03:39 | 35.76572 | -88.99178 | 23495 ft | 512 kts | 48° |
| 2026-04-16 03:39 | 35.78940 | -88.95879 | 23802 ft | 517 kts | 48° |
| 2026-04-16 03:39 | 35.81329 | -88.92547 | 24163 ft | 519 kts | 48° |
| 2026-04-16 03:40 | 35.83722 | -88.89211 | 24559 ft | 521 kts | 48° |
| 2026-04-16 03:40 | 35.86131 | -88.85851 | 24919 ft | 524 kts | 48° |
| 2026-04-16 03:40 | 35.88552 | -88.82474 | 25288 ft | 526 kts | 48° |
| 2026-04-16 03:40 | 35.90991 | -88.79068 | 25648 ft | 529 kts | 48° |
| 2026-04-16 03:41 | 35.93435 | -88.75654 | 26025 ft | 532 kts | 48° |
| 2026-04-16 03:41 | 35.95856 | -88.72268 | 26359 ft | 535 kts | 48° |
| 2026-04-16 03:41 | 35.98319 | -88.68819 | 26695 ft | 538 kts | 48° |
| 2026-04-16 03:41 | 36.00799 | -88.65343 | 27052 ft | 540 kts | 48° |
| 2026-04-16 03:42 | 36.03296 | -88.61840 | 27393 ft | 543 kts | 49° |
| 2026-04-16 03:42 | 36.05802 | -88.58319 | 27700 ft | 547 kts | 49° |
| 2026-04-16 03:42 | 36.08321 | -88.54778 | 28037 ft | 549 kts | 49° |
| 2026-04-16 03:42 | 36.10851 | -88.51216 | 28365 ft | 552 kts | 49° |
| 2026-04-16 03:43 | 36.13385 | -88.47645 | 28666 ft | 555 kts | 49° |
| 2026-04-16 03:43 | 36.15940 | -88.44040 | 28975 ft | 556 kts | 49° |
| 2026-04-16 03:43 | 36.18498 | -88.40427 | 29319 ft | 558 kts | 49° |
| 2026-04-16 03:43 | 36.21058 | -88.36808 | 29703 ft | 559 kts | 49° |
| 2026-04-16 03:44 | 36.23589 | -88.33228 | 30128 ft | 558 kts | 49° |
| 2026-04-16 03:44 | 36.26144 | -88.29609 | 30472 ft | 558 kts | 49° |
| 2026-04-16 03:44 | 36.28695 | -88.25991 | 30806 ft | 557 kts | 49° |
| 2026-04-16 03:44 | 36.31255 | -88.22355 | 31015 ft | 560 kts | 49° |
| 2026-04-16 03:45 | 36.33818 | -88.18713 | 31041 ft | 561 kts | 49° |
| 2026-04-16 03:45 | 36.38939 | -88.11423 | 31045 ft | 556 kts | 49° |
| 2026-04-16 03:46 | 36.43970 | -88.04242 | 31040 ft | 554 kts | 49° |
| 2026-04-16 03:46 | 36.49025 | -87.97017 | 31076 ft | 553 kts | 49° |
| 2026-04-16 03:47 | 36.54082 | -87.89771 | 31060 ft | 554 kts | 49° |
| 2026-04-16 03:47 | 36.59145 | -87.82500 | 31065 ft | 555 kts | 49° |
| 2026-04-16 03:48 | 36.64173 | -87.75263 | 31041 ft | 557 kts | 49° |
| 2026-04-16 03:48 | 36.69239 | -87.67956 | 31034 ft | 557 kts | 49° |
| 2026-04-16 03:49 | 36.74310 | -87.60625 | 31054 ft | 558 kts | 49° |
| 2026-04-16 03:49 | 36.79389 | -87.53268 | 31049 ft | 559 kts | 49° |
| 2026-04-16 03:50 | 36.84429 | -87.45950 | 31048 ft | 559 kts | 49° |
| 2026-04-16 03:50 | 36.89504 | -87.38566 | 31046 ft | 559 kts | 49° |
| 2026-04-16 03:51 | 36.94563 | -87.31187 | 31025 ft | 559 kts | 49° |
| 2026-04-16 03:51 | 36.99620 | -87.23795 | 31052 ft | 559 kts | 49° |
| 2026-04-16 03:52 | 37.04679 | -87.16385 | 31025 ft | 559 kts | 49° |
| 2026-04-16 03:52 | 37.09694 | -87.09021 | 31029 ft | 559 kts | 49° |
| 2026-04-16 03:53 | 37.14737 | -87.01600 | 31031 ft | 559 kts | 49° |
| 2026-04-16 03:53 | 37.19781 | -86.94162 | 31033 ft | 559 kts | 49° |
| 2026-04-16 03:54 | 37.24818 | -86.86714 | 31028 ft | 559 kts | 49° |
| 2026-04-16 03:54 | 37.29813 | -86.79315 | 31031 ft | 559 kts | 49° |
| 2026-04-16 03:55 | 37.34839 | -86.71853 | 31031 ft | 559 kts | 49° |
| 2026-04-16 03:55 | 37.39873 | -86.64363 | 31025 ft | 559 kts | 49° |
| 2026-04-16 03:56 | 37.44039 | -86.58148 | 31040 ft | 559 kts | 49° |
| 2026-04-16 03:56 | 37.49052 | -86.50654 | 31019 ft | 560 kts | 49° |
| 2026-04-16 03:57 | 37.54071 | -86.43138 | 31026 ft | 560 kts | 49° |
| 2026-04-16 03:57 | 37.59090 | -86.35603 | 31020 ft | 560 kts | 49° |
| 2026-04-16 03:58 | 37.64097 | -86.28068 | 31025 ft | 560 kts | 49° |
| 2026-04-16 03:58 | 37.69072 | -86.20565 | 31034 ft | 561 kts | 49° |
| 2026-04-16 03:59 | 37.74074 | -86.13003 | 31022 ft | 560 kts | 49° |
| 2026-04-16 03:59 | 37.79062 | -86.05445 | 31027 ft | 560 kts | 49° |
| 2026-04-16 04:00 | 37.84041 | -85.97883 | 31025 ft | 559 kts | 49° |
| 2026-04-16 04:00 | 37.89019 | -85.90303 | 31050 ft | 559 kts | 49° |
| 2026-04-16 04:01 | 37.93995 | -85.82712 | 31014 ft | 560 kts | 49° |
| 2026-04-16 04:01 | 37.98972 | -85.75099 | 31010 ft | 560 kts | 49° |
| 2026-04-16 04:02 | 38.03939 | -85.67481 | 31000 ft | 561 kts | 49° |
| 2026-04-16 04:02 | 38.08912 | -85.59840 | 30996 ft | 561 kts | 49° |
| 2026-04-16 04:03 | 38.13937 | -85.52338 | 31009 ft | 561 kts | 46° |
| 2026-04-16 04:03 | 38.19241 | -85.45034 | 31003 ft | 561 kts | 45° |
| 2026-04-16 04:04 | 38.24565 | -85.37751 | 30999 ft | 561 kts | 45° |
| 2026-04-16 04:04 | 38.29803 | -85.30465 | 31005 ft | 561 kts | 46° |
| 2026-04-16 04:05 | 38.35041 | -85.23095 | 31009 ft | 561 kts | 46° |
| 2026-04-16 04:05 | 38.40273 | -85.15706 | 31007 ft | 560 kts | 46° |
| 2026-04-16 04:06 | 38.45494 | -85.08324 | 31011 ft | 560 kts | 46° |
| 2026-04-16 04:06 | 38.50675 | -85.00987 | 30994 ft | 559 kts | 46° |
| 2026-04-16 04:07 | 38.55882 | -84.93600 | 31009 ft | 559 kts | 46° |
| 2026-04-16 04:07 | 38.63685 | -84.82498 | 31006 ft | 559 kts | 46° |
| 2026-04-16 04:08 | 38.68855 | -84.75120 | 31009 ft | 560 kts | 46° |
| 2026-04-16 04:08 | 38.74060 | -84.67669 | 31007 ft | 560 kts | 46° |
| 2026-04-16 04:09 | 38.79256 | -84.60216 | 31017 ft | 561 kts | 46° |
| 2026-04-16 04:09 | 38.84455 | -84.52745 | 30998 ft | 561 kts | 46° |
| 2026-04-16 04:10 | 38.89629 | -84.45289 | 30995 ft | 562 kts | 46° |
| 2026-04-16 04:10 | 38.94827 | -84.37781 | 30986 ft | 562 kts | 46° |
| 2026-04-16 04:11 | 39.00019 | -84.30265 | 31021 ft | 562 kts | 46° |
| 2026-04-16 04:11 | 39.05219 | -84.22715 | 30997 ft | 563 kts | 46° |
| 2026-04-16 04:12 | 39.10414 | -84.15156 | 31002 ft | 563 kts | 46° |
| 2026-04-16 04:12 | 39.15602 | -84.07589 | 30991 ft | 563 kts | 46° |
| 2026-04-16 04:13 | 39.20750 | -84.00064 | 31012 ft | 563 kts | 46° |
| 2026-04-16 04:13 | 39.25942 | -83.92456 | 30991 ft | 564 kts | 46° |
| 2026-04-16 04:14 | 39.31119 | -83.84850 | 30984 ft | 563 kts | 46° |
| 2026-04-16 04:14 | 39.36289 | -83.77236 | 30984 ft | 563 kts | 46° |
| 2026-04-16 04:15 | 39.41447 | -83.69621 | 31003 ft | 563 kts | 45° |
| 2026-04-16 04:15 | 39.46603 | -83.61991 | 30989 ft | 563 kts | 45° |
| 2026-04-16 04:16 | 39.51727 | -83.54391 | 30981 ft | 563 kts | 46° |
| 2026-04-16 04:16 | 39.56878 | -83.46730 | 30973 ft | 562 kts | 45° |
| 2026-04-16 04:17 | 39.62010 | -83.39080 | 31009 ft | 562 kts | 45° |
| 2026-04-16 04:17 | 39.67106 | -83.31464 | 30970 ft | 562 kts | 46° |
| 2026-04-16 04:18 | 39.72233 | -83.23783 | 30970 ft | 562 kts | 46° |
| 2026-04-16 04:18 | 39.77358 | -83.16086 | 30969 ft | 562 kts | 46° |
| 2026-04-16 04:19 | 39.82477 | -83.08380 | 30991 ft | 562 kts | 45° |
| 2026-04-16 04:19 | 39.87579 | -83.00679 | 30969 ft | 562 kts | 45° |
| 2026-04-16 04:20 | 39.92674 | -82.92969 | 30963 ft | 561 kts | 46° |
| 2026-04-16 04:20 | 39.97757 | -82.85259 | 30958 ft | 561 kts | 46° |
| 2026-04-16 04:21 | 40.02803 | -82.77584 | 30960 ft | 560 kts | 45° |
| 2026-04-16 04:21 | 40.07877 | -82.69847 | 30963 ft | 559 kts | 46° |
| 2026-04-16 04:22 | 40.12933 | -82.62121 | 30961 ft | 557 kts | 46° |
| 2026-04-16 04:22 | 40.17694 | -82.54215 | 30970 ft | 558 kts | 51° |
| 2026-04-16 04:23 | 40.22135 | -82.45876 | 30971 ft | 558 kts | 52° |
| 2026-04-16 04:23 | 40.26554 | -82.37508 | 30971 ft | 557 kts | 52° |
| 2026-04-16 04:24 | 40.30974 | -82.29200 | 30966 ft | 555 kts | 52° |
| 2026-04-16 04:24 | 40.35398 | -82.20912 | 30970 ft | 553 kts | 52° |
| 2026-04-16 04:25 | 40.39805 | -82.12637 | 30967 ft | 553 kts | 52° |
| 2026-04-16 04:25 | 40.44196 | -82.04365 | 30965 ft | 553 kts | 52° |
| 2026-04-16 04:26 | 40.48590 | -81.96060 | 30977 ft | 553 kts | 52° |
| 2026-04-16 04:26 | 40.52948 | -81.87800 | 30981 ft | 554 kts | 52° |
| 2026-04-16 04:27 | 40.57336 | -81.79460 | 30974 ft | 555 kts | 52° |
| 2026-04-16 04:27 | 40.61724 | -81.71099 | 31005 ft | 555 kts | 53° |
| 2026-04-16 04:28 | 40.66110 | -81.62722 | 30963 ft | 555 kts | 52° |
| 2026-04-16 04:28 | 40.70477 | -81.54355 | 30977 ft | 553 kts | 53° |
| 2026-04-16 04:29 | 40.74826 | -81.46000 | 30980 ft | 552 kts | 53° |
| 2026-04-16 04:29 | 40.79166 | -81.37643 | 30985 ft | 551 kts | 53° |
| 2026-04-16 04:30 | 40.83491 | -81.29290 | 30997 ft | 551 kts | 53° |
| 2026-04-16 04:30 | 40.87814 | -81.20920 | 30993 ft | 550 kts | 53° |
| 2026-04-16 04:31 | 40.92087 | -81.12622 | 30993 ft | 549 kts | 53° |
| 2026-04-16 04:31 | 40.96380 | -81.04265 | 31002 ft | 548 kts | 53° |
| 2026-04-16 04:32 | 41.00665 | -80.95897 | 31017 ft | 548 kts | 53° |
| 2026-04-16 04:32 | 41.04938 | -80.87536 | 30990 ft | 548 kts | 53° |
| 2026-04-16 04:33 | 41.09324 | -80.79265 | 30996 ft | 547 kts | 52° |
| 2026-04-16 04:33 | 41.13757 | -80.71140 | 30992 ft | 547 kts | 51° |
| 2026-04-16 04:34 | 41.18223 | -80.62915 | 31023 ft | 548 kts | 52° |
| 2026-04-16 04:34 | 41.22641 | -80.54694 | 31011 ft | 548 kts | 52° |
| 2026-04-16 04:35 | 41.27053 | -80.46438 | 31000 ft | 547 kts | 52° |
| 2026-04-16 04:35 | 41.31456 | -80.38178 | 31008 ft | 547 kts | 52° |
| 2026-04-16 04:36 | 41.35853 | -80.29911 | 31006 ft | 546 kts | 52° |
| 2026-04-16 04:36 | 41.40223 | -80.21674 | 31006 ft | 546 kts | 52° |
| 2026-04-16 04:37 | 41.44600 | -80.13403 | 30986 ft | 546 kts | 52° |
| 2026-04-16 04:37 | 41.48971 | -80.05122 | 30995 ft | 545 kts | 52° |
| 2026-04-16 04:38 | 41.53334 | -79.96831 | 31007 ft | 545 kts | 52° |
| 2026-04-16 04:38 | 41.57693 | -79.88527 | 31004 ft | 546 kts | 52° |
| 2026-04-16 04:39 | 41.62047 | -79.80209 | 30994 ft | 547 kts | 53° |
| 2026-04-16 04:39 | 41.66379 | -79.71910 | 30996 ft | 546 kts | 52° |
| 2026-04-16 04:40 | 41.70722 | -79.63567 | 31001 ft | 546 kts | 53° |
| 2026-04-16 04:40 | 41.75060 | -79.55212 | 31007 ft | 546 kts | 53° |
| 2026-04-16 04:41 | 41.79395 | -79.46838 | 31000 ft | 546 kts | 53° |
| 2026-04-16 04:41 | 41.83715 | -79.38470 | 31000 ft | 546 kts | 53° |
| 2026-04-16 04:42 | 41.88000 | -79.30151 | 31009 ft | 545 kts | 53° |
| 2026-04-16 04:42 | 41.92300 | -79.21775 | 31017 ft | 545 kts | 53° |
| 2026-04-16 04:43 | 41.95872 | -79.14802 | 31005 ft | 545 kts | 53° |
| 2026-04-16 04:43 | 42.00163 | -79.06401 | 31008 ft | 544 kts | 53° |
| 2026-04-16 04:44 | 42.04445 | -78.97999 | 31001 ft | 543 kts | 53° |
| 2026-04-16 04:44 | 42.08703 | -78.89615 | 31015 ft | 543 kts | 53° |
| 2026-04-16 04:45 | 42.12969 | -78.81196 | 31003 ft | 543 kts | 53° |
| 2026-04-16 04:45 | 42.17220 | -78.72783 | 30985 ft | 542 kts | 53° |
| 2026-04-16 04:46 | 42.21433 | -78.64421 | 31003 ft | 542 kts | 54° |
| 2026-04-16 04:46 | 42.25666 | -78.55994 | 31003 ft | 541 kts | 54° |
| 2026-04-16 04:47 | 42.29891 | -78.47563 | 31008 ft | 541 kts | 54° |
| 2026-04-16 04:47 | 42.34106 | -78.39126 | 31008 ft | 541 kts | 54° |
| 2026-04-16 04:48 | 42.38311 | -78.30686 | 31002 ft | 541 kts | 54° |
| 2026-04-16 04:48 | 42.42486 | -78.22282 | 31016 ft | 542 kts | 54° |
| 2026-04-16 04:49 | 42.46686 | -78.13804 | 30990 ft | 542 kts | 54° |
| 2026-04-16 04:49 | 42.50888 | -78.05298 | 30978 ft | 543 kts | 54° |
| 2026-04-16 04:50 | 42.55087 | -77.96774 | 30973 ft | 543 kts | 54° |
| 2026-04-16 04:50 | 42.59277 | -77.88241 | 30991 ft | 543 kts | 54° |
| 2026-04-16 04:51 | 42.63467 | -77.79688 | 30962 ft | 543 kts | 54° |
| 2026-04-16 04:51 | 42.67347 | -77.70879 | 30944 ft | 545 kts | 64° |
| 2026-04-16 04:52 | 42.70428 | -77.61536 | 30946 ft | 545 kts | 66° |
| 2026-04-16 04:52 | 42.73486 | -77.52095 | 30953 ft | 545 kts | 65° |
| 2026-04-16 04:53 | 42.76577 | -77.42675 | 30940 ft | 545 kts | 65° |
| 2026-04-16 04:53 | 42.79693 | -77.33260 | 30950 ft | 546 kts | 65° |
| 2026-04-16 04:54 | 42.82811 | -77.23806 | 30971 ft | 547 kts | 65° |
| 2026-04-16 04:54 | 42.85926 | -77.14312 | 30945 ft | 548 kts | 65° |
| 2026-04-16 04:55 | 42.89008 | -77.04879 | 30960 ft | 548 kts | 65° |
| 2026-04-16 04:55 | 42.92105 | -76.95367 | 30945 ft | 549 kts | 65° |
| 2026-04-16 04:56 | 42.95200 | -76.85828 | 30928 ft | 550 kts | 65° |
| 2026-04-16 04:56 | 42.98288 | -76.76276 | 30941 ft | 548 kts | 65° |
| 2026-04-16 04:57 | 43.01361 | -76.66738 | 30940 ft | 547 kts | 65° |
| 2026-04-16 04:57 | 43.04402 | -76.57265 | 30961 ft | 547 kts | 65° |
| 2026-04-16 04:58 | 43.07457 | -76.47715 | 30939 ft | 548 kts | 65° |
| 2026-04-16 04:58 | 43.10504 | -76.38155 | 30946 ft | 549 kts | 65° |
| 2026-04-16 04:59 | 43.13553 | -76.28554 | 30943 ft | 549 kts | 65° |
| 2026-04-16 04:59 | 43.16642 | -76.18990 | 30943 ft | 548 kts | 61° |
| 2026-04-16 05:00 | 43.20270 | -76.09806 | 30951 ft | 548 kts | 59° |
| 2026-04-16 05:00 | 43.23965 | -76.00706 | 30945 ft | 549 kts | 59° |
| 2026-04-16 05:01 | 43.27658 | -75.91501 | 30943 ft | 550 kts | 59° |
| 2026-04-16 05:01 | 43.31320 | -75.82259 | 30941 ft | 551 kts | 59° |
| 2026-04-16 05:02 | 43.34966 | -75.72999 | 30950 ft | 551 kts | 59° |
| 2026-04-16 05:02 | 43.38590 | -75.63770 | 30951 ft | 551 kts | 59° |
| 2026-04-16 05:03 | 43.42230 | -75.54478 | 30949 ft | 551 kts | 59° |
| 2026-04-16 05:04 | 43.47680 | -75.40515 | 30937 ft | 551 kts | 60° |
| 2026-04-16 05:04 | 43.51274 | -75.31264 | 30949 ft | 552 kts | 59° |
| 2026-04-16 05:05 | 43.54899 | -75.21909 | 30941 ft | 553 kts | 59° |
| 2026-04-16 05:05 | 43.58515 | -75.12543 | 30943 ft | 554 kts | 59° |
| 2026-04-16 05:06 | 43.62131 | -75.03146 | 30941 ft | 554 kts | 59° |
| 2026-04-16 05:06 | 43.65735 | -74.93744 | 30945 ft | 554 kts | 59° |
| 2026-04-16 05:07 | 43.69334 | -74.84331 | 30942 ft | 554 kts | 59° |
| 2026-04-16 05:07 | 43.72900 | -74.74973 | 30948 ft | 554 kts | 59° |
| 2026-04-16 05:08 | 43.76486 | -74.65526 | 30939 ft | 554 kts | 59° |
| 2026-04-16 05:08 | 43.80059 | -74.56082 | 30943 ft | 553 kts | 59° |
| 2026-04-16 05:09 | 43.83605 | -74.46683 | 30956 ft | 553 kts | 59° |
| 2026-04-16 05:09 | 43.87161 | -74.37222 | 30948 ft | 553 kts | 60° |
| 2026-04-16 05:10 | 43.90694 | -74.27751 | 30968 ft | 552 kts | 59° |
| 2026-04-16 05:10 | 43.94237 | -74.18278 | 30967 ft | 554 kts | 59° |
| 2026-04-16 05:11 | 43.97791 | -74.08762 | 30963 ft | 556 kts | 59° |
| 2026-04-16 05:11 | 44.01340 | -73.99191 | 30965 ft | 557 kts | 59° |
| 2026-04-16 05:12 | 44.04860 | -73.89652 | 30972 ft | 558 kts | 59° |
| 2026-04-16 05:12 | 44.08392 | -73.80042 | 30965 ft | 558 kts | 59° |
| 2026-04-16 05:13 | 44.11919 | -73.70407 | 30969 ft | 557 kts | 59° |
| 2026-04-16 05:13 | 44.15446 | -73.60796 | 30971 ft | 556 kts | 59° |
| 2026-04-16 05:14 | 44.18937 | -73.51234 | 30964 ft | 557 kts | 59° |
| 2026-04-16 05:14 | 44.22442 | -73.41580 | 30959 ft | 558 kts | 59° |
| 2026-04-16 05:15 | 44.25936 | -73.31912 | 30957 ft | 558 kts | 59° |
| 2026-04-16 05:15 | 44.29428 | -73.22224 | 30959 ft | 558 kts | 59° |
| 2026-04-16 05:16 | 44.32904 | -73.12545 | 30975 ft | 558 kts | 59° |
| 2026-04-16 05:16 | 44.36385 | -73.02827 | 30973 ft | 559 kts | 59° |
| 2026-04-16 05:17 | 44.39835 | -72.93164 | 30966 ft | 559 kts | 59° |
| 2026-04-16 05:17 | 44.43295 | -72.83422 | 30969 ft | 559 kts | 60° |
| 2026-04-16 05:18 | 44.46755 | -72.73656 | 30993 ft | 559 kts | 59° |
| 2026-04-16 05:18 | 44.50205 | -72.63886 | 30975 ft | 559 kts | 59° |
| 2026-04-16 05:19 | 44.53628 | -72.54153 | 30977 ft | 559 kts | 60° |
| 2026-04-16 05:19 | 44.57065 | -72.44338 | 30965 ft | 560 kts | 60° |
| 2026-04-16 05:20 | 44.60494 | -72.34525 | 30975 ft | 560 kts | 60° |
| 2026-04-16 05:20 | 44.63897 | -72.24743 | 30960 ft | 561 kts | 60° |
| 2026-04-16 05:21 | 44.67321 | -72.14862 | 30997 ft | 562 kts | 60° |
| 2026-04-16 05:21 | 44.70735 | -72.04974 | 30994 ft | 562 kts | 60° |
| 2026-04-16 05:22 | 44.74146 | -71.95061 | 30993 ft | 563 kts | 60° |
| 2026-04-16 05:22 | 44.77553 | -71.85120 | 30974 ft | 563 kts | 60° |
| 2026-04-16 05:23 | 44.80925 | -71.75249 | 30969 ft | 562 kts | 60° |
| 2026-04-16 05:23 | 44.83905 | -71.65046 | 30969 ft | 564 kts | 68° |
| 2026-04-16 05:24 | 44.86399 | -71.54549 | 30993 ft | 564 kts | 69° |
| 2026-04-16 05:24 | 44.88883 | -71.44022 | 30968 ft | 565 kts | 69° |
| 2026-04-16 05:25 | 44.91392 | -71.33528 | 30975 ft | 564 kts | 68° |
| 2026-04-16 05:25 | 44.93908 | -71.23043 | 30979 ft | 564 kts | 68° |
| 2026-04-16 05:26 | 44.96407 | -71.12598 | 30971 ft | 564 kts | 68° |
| 2026-04-16 05:26 | 44.98907 | -71.02091 | 30984 ft | 565 kts | 68° |
| 2026-04-16 05:27 | 45.01397 | -70.91558 | 30982 ft | 565 kts | 68° |
| 2026-04-16 05:27 | 45.03880 | -70.80995 | 30982 ft | 566 kts | 68° |
| 2026-04-16 05:28 | 45.06358 | -70.70405 | 30978 ft | 567 kts | 69° |
| 2026-04-16 05:28 | 45.08830 | -70.59797 | 30980 ft | 567 kts | 69° |
| 2026-04-16 05:29 | 45.11274 | -70.49255 | 31002 ft | 567 kts | 69° |
| 2026-04-16 05:29 | 45.13724 | -70.38637 | 30996 ft | 566 kts | 69° |
| 2026-04-16 05:30 | 45.16161 | -70.28023 | 30988 ft | 566 kts | 69° |
| 2026-04-16 05:30 | 45.18583 | -70.17422 | 30989 ft | 565 kts | 69° |
| 2026-04-16 05:31 | 45.20981 | -70.06884 | 31024 ft | 564 kts | 69° |
| 2026-04-16 05:31 | 45.23382 | -69.96273 | 31001 ft | 565 kts | 69° |
| 2026-04-16 05:32 | 45.25372 | -69.87439 | 30997 ft | 565 kts | 69° |
| 2026-04-16 05:32 | 45.27762 | -69.76777 | 31002 ft | 566 kts | 69° |
| 2026-04-16 05:33 | 45.30138 | -69.66125 | 31004 ft | 566 kts | 69° |
| 2026-04-16 05:33 | 45.32511 | -69.55436 | 31030 ft | 566 kts | 69° |
| 2026-04-16 05:34 | 45.34862 | -69.44794 | 31016 ft | 567 kts | 69° |
| 2026-04-16 05:34 | 45.37213 | -69.34093 | 31018 ft | 567 kts | 69° |
| 2026-04-16 05:35 | 45.39555 | -69.23381 | 31013 ft | 566 kts | 69° |
| 2026-04-16 05:35 | 45.41891 | -69.12646 | 31018 ft | 566 kts | 69° |
| 2026-04-16 05:36 | 45.44197 | -69.01987 | 31035 ft | 567 kts | 69° |
| 2026-04-16 05:36 | 45.46508 | -68.91256 | 31021 ft | 567 kts | 69° |
| 2026-04-16 05:37 | 45.48810 | -68.80509 | 31019 ft | 566 kts | 69° |
| 2026-04-16 05:37 | 45.51097 | -68.69778 | 31022 ft | 566 kts | 69° |
| 2026-04-16 05:38 | 45.53377 | -68.59018 | 31026 ft | 565 kts | 69° |
| 2026-04-16 05:38 | 45.55642 | -68.48278 | 31022 ft | 566 kts | 69° |
| 2026-04-16 05:39 | 45.57889 | -68.37565 | 31021 ft | 565 kts | 69° |
| 2026-04-16 05:39 | 45.60134 | -68.26804 | 31019 ft | 565 kts | 69° |
| 2026-04-16 05:40 | 45.62373 | -68.16020 | 31022 ft | 565 kts | 69° |
| 2026-04-16 05:40 | 45.64584 | -68.05308 | 31029 ft | 565 kts | 69° |
| 2026-04-16 05:41 | 45.66801 | -67.94513 | 31028 ft | 566 kts | 69° |
| 2026-04-16 05:41 | 45.69011 | -67.83694 | 31032 ft | 566 kts | 69° |
| 2026-04-16 05:42 | 45.71475 | -67.73051 | 31032 ft | 562 kts | 65° |
| 2026-04-16 05:42 | 45.74204 | -67.62573 | 31039 ft | 561 kts | 64° |
| 2026-04-16 05:43 | 45.76922 | -67.52173 | 31058 ft | 562 kts | 64° |
| 2026-04-16 05:43 | 45.79631 | -67.41628 | 31038 ft | 563 kts | 64° |
| 2026-04-16 05:44 | 45.82295 | -67.31120 | 31044 ft | 563 kts | 65° |
| 2026-04-16 05:44 | 45.84964 | -67.20536 | 31044 ft | 563 kts | 65° |
| 2026-04-16 05:45 | 45.87627 | -67.09936 | 31042 ft | 563 kts | 65° |
| 2026-04-16 05:45 | 45.90264 | -66.99404 | 31052 ft | 564 kts | 65° |
| 2026-04-16 05:46 | 45.92928 | -66.88726 | 31392 ft | 570 kts | 65° |
| 2026-04-16 05:46 | 45.94254 | -66.83378 | 31949 ft | 565 kts | 64° |
| 2026-04-16 05:46 | 45.95567 | -66.78061 | 32406 ft | 562 kts | 64° |
| 2026-04-16 05:46 | 45.96876 | -66.72759 | 32698 ft | 563 kts | 64° |
| 2026-04-16 05:47 | 45.98190 | -66.67433 | 32935 ft | 565 kts | 64° |
| 2026-04-16 05:47 | 45.99504 | -66.62100 | 33064 ft | 568 kts | 64° |
| 2026-04-16 05:47 | 46.00807 | -66.56797 | 33043 ft | 569 kts | 64° |
| 2026-04-16 05:48 | 46.03444 | -66.46005 | 33059 ft | 566 kts | 64° |
| 2026-04-16 05:48 | 46.06026 | -66.35379 | 33043 ft | 564 kts | 65° |
| 2026-04-16 05:49 | 46.08608 | -66.24713 | 33056 ft | 562 kts | 64° |
| 2026-04-16 05:49 | 46.11172 | -66.14083 | 33095 ft | 562 kts | 64° |
| 2026-04-16 05:50 | 46.13717 | -66.03481 | 33057 ft | 563 kts | 64° |
| 2026-04-16 05:50 | 46.16269 | -65.92790 | 33060 ft | 564 kts | 65° |
| 2026-04-16 05:51 | 46.18818 | -65.82058 | 33060 ft | 566 kts | 65° |
| 2026-04-16 05:51 | 46.21362 | -65.71300 | 33053 ft | 566 kts | 65° |
| 2026-04-16 05:52 | 46.23895 | -65.60527 | 33054 ft | 566 kts | 65° |
| 2026-04-16 05:52 | 46.26421 | -65.49736 | 33049 ft | 566 kts | 65° |
| 2026-04-16 05:53 | 46.28938 | -65.38926 | 33047 ft | 566 kts | 65° |
| 2026-04-16 05:53 | 46.31440 | -65.28128 | 33049 ft | 566 kts | 65° |
| 2026-04-16 05:54 | 46.33917 | -65.17392 | 33064 ft | 566 kts | 65° |
| 2026-04-16 05:54 | 46.36402 | -65.06561 | 33056 ft | 565 kts | 65° |
| 2026-04-16 05:55 | 46.38867 | -64.95763 | 33045 ft | 565 kts | 65° |
| 2026-04-16 05:55 | 46.41323 | -64.84952 | 33046 ft | 564 kts | 65° |
| 2026-04-16 05:56 | 46.43752 | -64.74207 | 33052 ft | 564 kts | 65° |
| 2026-04-16 05:56 | 46.46191 | -64.63364 | 33050 ft | 565 kts | 65° |
| 2026-04-16 05:57 | 46.48621 | -64.52506 | 33050 ft | 566 kts | 65° |
| 2026-04-16 05:57 | 46.51041 | -64.41634 | 33052 ft | 566 kts | 65° |
| 2026-04-16 05:58 | 46.53440 | -64.30799 | 33053 ft | 566 kts | 65° |
| 2026-04-16 05:58 | 46.55846 | -64.19878 | 33067 ft | 567 kts | 65° |
| 2026-04-16 05:59 | 46.58243 | -64.08944 | 33060 ft | 568 kts | 65° |
| 2026-04-16 05:59 | 46.60633 | -63.97975 | 33061 ft | 568 kts | 65° |
| 2026-04-16 06:00 | 46.63013 | -63.87000 | 33058 ft | 568 kts | 65° |
| 2026-04-16 06:00 | 46.65365 | -63.76096 | 33113 ft | 568 kts | 65° |
| 2026-04-16 06:01 | 46.67726 | -63.65097 | 33059 ft | 568 kts | 65° |
| 2026-04-16 06:01 | 46.70072 | -63.54104 | 33057 ft | 568 kts | 66° |
| 2026-04-16 06:02 | 46.73569 | -63.37607 | 33080 ft | 567 kts | 66° |
| 2026-04-16 06:02 | 46.75868 | -63.26691 | 33114 ft | 567 kts | 65° |
| 2026-04-16 06:03 | 46.78177 | -63.15670 | 33076 ft | 567 kts | 66° |
| 2026-04-16 06:03 | 46.80472 | -63.04653 | 33072 ft | 567 kts | 66° |
| 2026-04-16 06:04 | 46.82761 | -62.93605 | 33077 ft | 567 kts | 66° |
| 2026-04-16 06:04 | 46.85016 | -62.82657 | 33074 ft | 566 kts | 66° |
| 2026-04-16 06:05 | 46.87278 | -62.71622 | 33091 ft | 567 kts | 66° |
| 2026-04-16 06:05 | 46.89530 | -62.60570 | 33080 ft | 567 kts | 66° |
| 2026-04-16 06:06 | 46.91769 | -62.49519 | 33077 ft | 566 kts | 66° |
| 2026-04-16 06:06 | 46.93998 | -62.38456 | 33083 ft | 566 kts | 66° |
| 2026-04-16 06:07 | 46.96216 | -62.27389 | 33127 ft | 566 kts | 66° |
| 2026-04-16 06:07 | 46.98408 | -62.16390 | 33092 ft | 566 kts | 66° |
| 2026-04-16 06:08 | 47.00602 | -62.05313 | 33083 ft | 565 kts | 66° |
| 2026-04-16 06:08 | 47.02785 | -61.94235 | 33085 ft | 565 kts | 66° |
| 2026-04-16 06:09 | 47.04954 | -61.83163 | 33090 ft | 564 kts | 66° |
| 2026-04-16 06:09 | 47.07112 | -61.72081 | 33111 ft | 564 kts | 66° |
| 2026-04-16 06:10 | 47.09245 | -61.61069 | 33091 ft | 563 kts | 66° |
| 2026-04-16 06:10 | 47.11375 | -61.50002 | 33086 ft | 562 kts | 66° |
| 2026-04-16 06:11 | 47.13474 | -61.39034 | 33092 ft | 561 kts | 67° |
| 2026-04-16 06:11 | 47.15577 | -61.27988 | 33092 ft | 560 kts | 67° |
| 2026-04-16 06:12 | 47.17665 | -61.16956 | 33092 ft | 560 kts | 67° |
| 2026-04-16 06:12 | 47.19739 | -61.05928 | 33096 ft | 559 kts | 67° |
| 2026-04-16 06:13 | 47.21788 | -60.94969 | 33095 ft | 558 kts | 67° |
| 2026-04-16 06:13 | 47.23835 | -60.83956 | 33102 ft | 557 kts | 67° |
| 2026-04-16 06:14 | 47.25873 | -60.72931 | 33106 ft | 557 kts | 67° |
| 2026-04-16 06:14 | 47.27898 | -60.61910 | 33110 ft | 558 kts | 68° |
| 2026-04-16 06:15 | 47.29902 | -60.50939 | 33111 ft | 558 kts | 68° |
| 2026-04-16 06:15 | 47.31921 | -60.39812 | 33116 ft | 559 kts | 68° |
| 2026-04-16 06:16 | 47.33906 | -60.28812 | 33122 ft | 559 kts | 68° |
| 2026-04-16 06:16 | 47.35898 | -60.17702 | 33112 ft | 560 kts | 68° |
| 2026-04-16 06:17 | 47.37875 | -60.06604 | 33123 ft | 559 kts | 68° |
| 2026-04-16 06:17 | 47.39844 | -59.95480 | 33117 ft | 558 kts | 68° |
| 2026-04-16 06:18 | 47.41788 | -59.84441 | 33151 ft | 562 kts | 68° |
| 2026-04-16 06:18 | 47.43755 | -59.73221 | 33173 ft | 563 kts | 69° |
| 2026-04-16 06:19 | 47.45683 | -59.62084 | 33133 ft | 554 kts | 69° |
| 2026-04-16 06:19 | 47.47586 | -59.51052 | 33141 ft | 554 kts | 69° |
| 2026-04-16 06:20 | 47.49475 | -59.40074 | 33141 ft | 555 kts | 69° |
| 2026-04-16 06:20 | 47.51366 | -59.29000 | 33153 ft | 555 kts | 69° |
| 2026-04-16 06:21 | 47.52932 | -59.19764 | 33189 ft | 556 kts | 69° |
| 2026-04-16 06:21 | 47.54807 | -59.08635 | 33151 ft | 556 kts | 69° |
| 2026-04-16 06:22 | 47.56668 | -58.97515 | 33151 ft | 555 kts | 69° |
| 2026-04-16 06:22 | 47.58505 | -58.86473 | 33157 ft | 554 kts | 69° |
| 2026-04-16 06:23 | 47.60349 | -58.75317 | 33162 ft | 554 kts | 70° |
| 2026-04-16 06:23 | 47.62159 | -58.64294 | 33167 ft | 553 kts | 70° |
| 2026-04-16 06:24 | 47.63965 | -58.53228 | 33168 ft | 551 kts | 70° |
| 2026-04-16 06:24 | 47.65757 | -58.42171 | 33172 ft | 550 kts | 70° |
| 2026-04-16 06:25 | 47.67534 | -58.31138 | 33170 ft | 549 kts | 70° |
| 2026-04-16 06:25 | 47.69291 | -58.20157 | 33171 ft | 549 kts | 70° |
| 2026-04-16 06:26 | 47.71044 | -58.09125 | 33182 ft | 549 kts | 71° |
| 2026-04-16 06:26 | 47.72782 | -57.98112 | 33179 ft | 547 kts | 71° |
| 2026-04-16 06:27 | 47.74505 | -57.87119 | 33174 ft | 545 kts | 71° |
| 2026-04-16 06:27 | 47.76205 | -57.76196 | 33174 ft | 544 kts | 71° |
| 2026-04-16 06:28 | 47.77903 | -57.65226 | 33230 ft | 544 kts | 72° |
| 2026-04-16 06:28 | 47.79585 | -57.54280 | 33164 ft | 542 kts | 72° |
| 2026-04-16 06:29 | 47.81253 | -57.43332 | 33176 ft | 540 kts | 72° |
| 2026-04-16 06:29 | 47.82903 | -57.32443 | 33179 ft | 539 kts | 72° |
| 2026-04-16 06:30 | 47.84531 | -57.21630 | 33189 ft | 538 kts | 72° |
| 2026-04-16 06:30 | 47.86156 | -57.10761 | 33213 ft | 538 kts | 73° |
| 2026-04-16 06:31 | 47.87770 | -56.99881 | 33181 ft | 537 kts | 73° |
| 2026-04-16 06:31 | 47.89370 | -56.89021 | 33144 ft | 536 kts | 73° |
| 2026-04-16 06:32 | 47.90959 | -56.78161 | 33153 ft | 535 kts | 73° |
| 2026-04-16 06:32 | 47.92536 | -56.67313 | 33152 ft | 535 kts | 73° |
| 2026-04-16 06:33 | 47.94092 | -56.56530 | 33184 ft | 535 kts | 73° |
| 2026-04-16 06:33 | 47.95647 | -56.45674 | 33138 ft | 534 kts | 73° |
| 2026-04-16 06:34 | 47.97188 | -56.34832 | 33132 ft | 533 kts | 73° |
| 2026-04-16 06:34 | 47.98705 | -56.24087 | 33118 ft | 531 kts | 73° |
| 2026-04-16 06:35 | 48.00220 | -56.13283 | 33138 ft | 531 kts | 73° |
| 2026-04-16 06:35 | 48.01722 | -56.02493 | 33162 ft | 531 kts | 74° |
| 2026-04-16 06:36 | 48.03214 | -55.91688 | 33139 ft | 529 kts | 74° |
| 2026-04-16 06:36 | 48.04683 | -55.80979 | 33138 ft | 528 kts | 74° |
| 2026-04-16 06:37 | 48.06146 | -55.70231 | 33137 ft | 527 kts | 74° |
| 2026-04-16 06:37 | 48.07600 | -55.59466 | 33130 ft | 527 kts | 74° |
| 2026-04-16 06:38 | 48.09047 | -55.48688 | 33146 ft | 529 kts | 74° |
| 2026-04-16 06:38 | 48.10486 | -55.37878 | 33142 ft | 530 kts | 74° |
| 2026-04-16 06:39 | 48.11919 | -55.27030 | 33155 ft | 531 kts | 74° |
| 2026-04-16 06:39 | 48.13344 | -55.16156 | 33136 ft | 532 kts | 75° |
| 2026-04-16 06:40 | 48.14749 | -55.05347 | 33157 ft | 533 kts | 75° |
| 2026-04-16 06:40 | 48.16156 | -54.94444 | 33188 ft | 532 kts | 75° |
| 2026-04-16 06:41 | 48.17547 | -54.83571 | 33182 ft | 530 kts | 75° |
| 2026-04-16 06:41 | 48.18926 | -54.72711 | 33181 ft | 528 kts | 75° |
| 2026-04-16 06:42 | 48.20286 | -54.61912 | 33186 ft | 526 kts | 75° |
| 2026-04-16 06:42 | 48.21624 | -54.51215 | 33185 ft | 524 kts | 75° |
| 2026-04-16 06:43 | 48.22959 | -54.40455 | 33212 ft | 524 kts | 75° |
| 2026-04-16 06:43 | 48.24281 | -54.29706 | 33190 ft | 523 kts | 75° |
| 2026-04-16 06:44 | 48.25592 | -54.18963 | 33188 ft | 522 kts | 76° |
| 2026-04-16 06:44 | 48.26891 | -54.08235 | 33188 ft | 522 kts | 76° |
| 2026-04-16 06:45 | 48.28172 | -53.97567 | 33188 ft | 522 kts | 76° |
| 2026-04-16 06:45 | 48.29451 | -53.86820 | 33221 ft | 522 kts | 76° |
| 2026-04-16 06:46 | 48.30721 | -53.76061 | 33177 ft | 522 kts | 76° |
| 2026-04-16 06:46 | 48.31975 | -53.65343 | 33179 ft | 521 kts | 76° |
| 2026-04-16 06:47 | 48.33222 | -53.54606 | 33177 ft | 520 kts | 76° |
| 2026-04-16 06:47 | 48.34456 | -53.43888 | 33175 ft | 520 kts | 76° |
| 2026-04-16 06:48 | 48.35671 | -53.33241 | 33221 ft | 520 kts | 76° |
| 2026-04-16 06:48 | 48.36885 | -53.22516 | 33190 ft | 520 kts | 76° |
| 2026-04-16 06:49 | 48.38088 | -53.11786 | 33196 ft | 519 kts | 77° |
| 2026-04-16 06:49 | 48.39278 | -53.01080 | 33194 ft | 518 kts | 77° |
| 2026-04-16 06:50 | 48.40458 | -52.90372 | 33192 ft | 518 kts | 77° |
| 2026-04-16 06:50 | 48.41627 | -52.79670 | 33193 ft | 518 kts | 77° |
| 2026-04-16 06:51 | 48.42786 | -52.68963 | 33201 ft | 518 kts | 77° |
| 2026-04-16 06:51 | 48.43927 | -52.58319 | 33203 ft | 517 kts | 77° |
| 2026-04-16 06:52 | 48.45063 | -52.47632 | 33209 ft | 516 kts | 77° |
| 2026-04-16 06:52 | 48.46185 | -52.36982 | 33210 ft | 516 kts | 77° |
| 2026-04-16 06:53 | 48.47299 | -52.26306 | 33215 ft | 516 kts | 77° |
| 2026-04-16 06:53 | 48.48406 | -52.15604 | 33217 ft | 516 kts | 77° |
| 2026-04-16 06:54 | 48.49508 | -52.04909 | 33217 ft | 515 kts | 76° |
| 2026-04-16 06:54 | 48.51299 | -51.94536 | 33211 ft | 507 kts | 64° |
| 2026-04-16 06:55 | 48.53903 | -51.84718 | 33224 ft | 506 kts | 63° |
| 2026-04-16 06:55 | 48.56521 | -51.74837 | 33247 ft | 507 kts | 64° |
| 2026-04-16 06:56 | 48.59100 | -51.64905 | 33226 ft | 507 kts | 64° |
| 2026-04-16 06:56 | 48.61654 | -51.54950 | 33224 ft | 507 kts | 64° |
| 2026-04-16 06:57 | 48.64175 | -51.45070 | 33223 ft | 506 kts | 64° |
| 2026-04-16 06:57 | 48.66704 | -51.35127 | 33222 ft | 506 kts | 64° |
| 2026-04-16 06:58 | 48.69225 | -51.25178 | 33226 ft | 506 kts | 64° |
| 2026-04-16 06:58 | 48.71740 | -51.15208 | 33224 ft | 505 kts | 64° |
| 2026-04-16 06:59 | 48.74222 | -51.05329 | 33223 ft | 505 kts | 64° |
| 2026-04-16 06:59 | 48.76710 | -50.95378 | 33223 ft | 505 kts | 64° |
| 2026-04-16 07:00 | 48.79191 | -50.85412 | 33239 ft | 505 kts | 65° |
| 2026-04-16 07:01 | 48.82904 | -50.70411 | 33225 ft | 506 kts | 65° |
| 2026-04-16 07:01 | 48.85352 | -50.60465 | 33223 ft | 505 kts | 65° |
| 2026-04-16 07:02 | 48.87805 | -50.50453 | 33224 ft | 505 kts | 65° |
| 2026-04-16 07:02 | 48.90248 | -50.40443 | 33223 ft | 505 kts | 65° |
| 2026-04-16 07:03 | 48.92681 | -50.30420 | 33223 ft | 505 kts | 65° |
| 2026-04-16 07:03 | 48.95110 | -50.20374 | 33222 ft | 505 kts | 65° |
| 2026-04-16 07:04 | 48.97529 | -50.10324 | 33225 ft | 505 kts | 65° |
| 2026-04-16 07:04 | 48.99901 | -50.00300 | 33235 ft | 507 kts | 68° |
| 2026-04-16 07:05 | 49.01586 | -49.89814 | 33229 ft | 511 kts | 74° |
| 2026-04-16 07:05 | 49.03055 | -49.79215 | 33225 ft | 511 kts | 74° |
| 2026-04-16 07:06 | 49.04525 | -49.68682 | 33219 ft | 510 kts | 73° |
| 2026-04-16 07:06 | 49.06020 | -49.58112 | 33223 ft | 509 kts | 73° |
| 2026-04-16 07:07 | 49.07515 | -49.47561 | 33228 ft | 509 kts | 73° |
| 2026-04-16 07:07 | 49.09002 | -49.36996 | 33207 ft | 509 kts | 74° |
| 2026-04-16 07:08 | 49.10478 | -49.26421 | 33228 ft | 509 kts | 74° |
| 2026-04-16 07:08 | 49.11695 | -49.17631 | 33229 ft | 509 kts | 74° |
| 2026-04-16 07:09 | 49.13390 | -49.05309 | 33220 ft | 509 kts | 74° |
| 2026-04-16 07:09 | 49.14599 | -48.96451 | 33215 ft | 509 kts | 74° |
| 2026-04-16 07:10 | 49.16024 | -48.85946 | 33225 ft | 508 kts | 74° |
| 2026-04-16 07:10 | 49.17448 | -48.75365 | 33218 ft | 508 kts | 74° |
| 2026-04-16 07:11 | 49.18862 | -48.64788 | 33217 ft | 508 kts | 74° |
| 2026-04-16 07:11 | 49.20267 | -48.54198 | 33216 ft | 508 kts | 74° |
| 2026-04-16 07:12 | 49.21662 | -48.43606 | 33222 ft | 508 kts | 75° |
| 2026-04-16 07:12 | 49.23042 | -48.33050 | 33212 ft | 509 kts | 75° |
| 2026-04-16 07:13 | 49.24420 | -48.22425 | 33214 ft | 508 kts | 75° |
| 2026-04-16 07:13 | 49.25785 | -48.11815 | 33207 ft | 508 kts | 75° |
| 2026-04-16 07:14 | 49.27141 | -48.01198 | 33237 ft | 508 kts | 75° |
| 2026-04-16 07:14 | 49.28489 | -47.90564 | 33210 ft | 508 kts | 75° |
| 2026-04-16 07:15 | 49.29826 | -47.79931 | 33204 ft | 509 kts | 75° |
| 2026-04-16 07:15 | 49.31156 | -47.69274 | 33208 ft | 509 kts | 75° |
| 2026-04-16 07:16 | 49.32476 | -47.58610 | 33201 ft | 509 kts | 75° |
| 2026-04-16 07:16 | 49.33777 | -47.48014 | 33238 ft | 509 kts | 75° |
| 2026-04-16 07:17 | 49.35078 | -47.37335 | 33212 ft | 509 kts | 76° |
| 2026-04-16 07:17 | 49.36369 | -47.26653 | 33202 ft | 509 kts | 76° |
| 2026-04-16 07:18 | 49.37653 | -47.15934 | 33202 ft | 509 kts | 76° |
| 2026-04-16 07:18 | 49.38917 | -47.05303 | 33192 ft | 509 kts | 76° |
| 2026-04-16 07:19 | 49.40178 | -46.94608 | 33212 ft | 509 kts | 76° |
| 2026-04-16 07:19 | 49.41430 | -46.83899 | 33189 ft | 510 kts | 76° |
| 2026-04-16 07:20 | 49.42674 | -46.73161 | 33199 ft | 510 kts | 76° |
| 2026-04-16 07:20 | 49.43909 | -46.62417 | 33196 ft | 510 kts | 76° |
| 2026-04-16 07:21 | 49.45125 | -46.51747 | 33177 ft | 510 kts | 76° |
| 2026-04-16 07:21 | 49.46338 | -46.41009 | 33193 ft | 510 kts | 76° |
| 2026-04-16 07:22 | 49.47544 | -46.30240 | 33185 ft | 511 kts | 76° |
| 2026-04-16 07:22 | 49.48740 | -46.19463 | 33186 ft | 511 kts | 76° |
| 2026-04-16 07:23 | 49.49927 | -46.08677 | 33183 ft | 511 kts | 76° |
| 2026-04-16 07:23 | 49.51103 | -45.97890 | 33182 ft | 511 kts | 77° |
| 2026-04-16 07:24 | 49.52262 | -45.87162 | 33182 ft | 512 kts | 77° |
| 2026-04-16 07:24 | 49.53421 | -45.76337 | 33178 ft | 512 kts | 77° |
| 2026-04-16 07:25 | 49.54569 | -45.65518 | 33173 ft | 512 kts | 77° |
| 2026-04-16 07:25 | 49.55707 | -45.54691 | 33175 ft | 511 kts | 77° |
| 2026-04-16 07:26 | 49.56826 | -45.43943 | 33170 ft | 511 kts | 77° |
| 2026-04-16 07:26 | 49.57945 | -45.33102 | 33170 ft | 511 kts | 77° |
| 2026-04-16 07:27 | 49.59047 | -45.22320 | 33167 ft | 511 kts | 77° |
| 2026-04-16 07:27 | 49.60144 | -45.11475 | 33170 ft | 511 kts | 77° |
| 2026-04-16 07:28 | 49.61230 | -45.00636 | 33165 ft | 511 kts | 77° |
| 2026-04-16 07:28 | 49.62305 | -44.89803 | 33168 ft | 511 kts | 77° |
| 2026-04-16 07:29 | 49.63371 | -44.78962 | 33165 ft | 511 kts | 78° |
| 2026-04-16 07:29 | 49.64422 | -44.68163 | 33167 ft | 511 kts | 78° |
| 2026-04-16 07:30 | 49.65468 | -44.57303 | 33157 ft | 512 kts | 78° |
| 2026-04-16 07:30 | 49.66505 | -44.46429 | 33162 ft | 512 kts | 78° |
| 2026-04-16 07:31 | 49.67532 | -44.35538 | 33158 ft | 512 kts | 78° |
| 2026-04-16 07:31 | 49.68546 | -44.24690 | 33161 ft | 513 kts | 78° |
| 2026-04-16 07:32 | 49.69557 | -44.13751 | 33152 ft | 514 kts | 78° |
| 2026-04-16 07:32 | 49.70557 | -44.02804 | 33150 ft | 514 kts | 78° |
| 2026-04-16 07:33 | 49.71543 | -43.91907 | 33150 ft | 514 kts | 78° |
| 2026-04-16 07:33 | 49.72524 | -43.80947 | 33173 ft | 514 kts | 78° |
| 2026-04-16 07:34 | 49.73495 | -43.69970 | 33149 ft | 515 kts | 78° |
| 2026-04-16 07:34 | 49.74457 | -43.58982 | 33145 ft | 516 kts | 78° |
| 2026-04-16 07:35 | 49.75408 | -43.47993 | 33140 ft | 515 kts | 79° |
| 2026-04-16 07:35 | 49.76348 | -43.36999 | 33135 ft | 515 kts | 79° |
| 2026-04-16 07:36 | 49.77278 | -43.26009 | 33153 ft | 515 kts | 79° |
| 2026-04-16 07:36 | 49.78191 | -43.15085 | 33130 ft | 515 kts | 79° |
| 2026-04-16 07:37 | 49.79103 | -43.04057 | 33131 ft | 515 kts | 79° |
| 2026-04-16 07:37 | 49.80002 | -42.93044 | 33128 ft | 516 kts | 79° |
| 2026-04-16 07:38 | 49.80886 | -42.82080 | 33128 ft | 516 kts | 79° |
| 2026-04-16 07:38 | 49.81765 | -42.71059 | 33138 ft | 516 kts | 79° |
| 2026-04-16 07:39 | 49.82634 | -42.60016 | 33127 ft | 517 kts | 79° |
| 2026-04-16 07:39 | 49.83494 | -42.48959 | 33115 ft | 517 kts | 79° |
| 2026-04-16 07:40 | 49.84342 | -42.37903 | 33121 ft | 517 kts | 79° |
| 2026-04-16 07:40 | 49.85182 | -42.26825 | 33114 ft | 517 kts | 79° |
| 2026-04-16 07:41 | 49.86010 | -42.15762 | 33112 ft | 517 kts | 79° |
| 2026-04-16 07:41 | 49.86823 | -42.04743 | 33122 ft | 518 kts | 80° |
| 2026-04-16 07:42 | 49.87631 | -41.93648 | 33109 ft | 517 kts | 80° |
| 2026-04-16 07:42 | 49.88429 | -41.82553 | 33099 ft | 517 kts | 80° |
| 2026-04-16 07:43 | 49.89215 | -41.71467 | 33101 ft | 516 kts | 80° |
| 2026-04-16 07:43 | 49.89990 | -41.60389 | 33117 ft | 517 kts | 80° |
| 2026-04-16 07:44 | 49.90756 | -41.49283 | 33110 ft | 517 kts | 80° |
| 2026-04-16 07:44 | 49.91510 | -41.38179 | 33103 ft | 517 kts | 80° |
| 2026-04-16 07:45 | 49.92249 | -41.27147 | 33102 ft | 517 kts | 80° |
| 2026-04-16 07:45 | 49.92984 | -41.16022 | 33106 ft | 518 kts | 81° |
| 2026-04-16 07:46 | 49.93708 | -41.04890 | 33106 ft | 518 kts | 81° |
| 2026-04-16 07:46 | 49.94421 | -40.93760 | 33096 ft | 518 kts | 81° |
| 2026-04-16 07:47 | 49.95120 | -40.82681 | 33099 ft | 518 kts | 81° |
| 2026-04-16 07:47 | 49.95813 | -40.71540 | 33095 ft | 518 kts | 81° |
| 2026-04-16 07:48 | 49.96493 | -40.60410 | 33098 ft | 518 kts | 81° |
| 2026-04-16 07:48 | 49.97164 | -40.49267 | 33097 ft | 518 kts | 81° |
| 2026-04-16 07:49 | 49.97822 | -40.38161 | 33094 ft | 518 kts | 81° |
| 2026-04-16 07:49 | 49.98473 | -40.26987 | 33087 ft | 518 kts | 81° |
| 2026-04-16 07:50 | 49.99113 | -40.15824 | 33087 ft | 518 kts | 81° |
| 2026-04-16 07:50 | 49.99801 | -40.04699 | 33079 ft | 515 kts | 77° |
| 2026-04-16 07:51 | 50.01440 | -39.93948 | 33080 ft | 508 kts | 66° |
| 2026-04-16 07:51 | 50.03984 | -39.83811 | 33083 ft | 505 kts | 63° |
| 2026-04-16 07:52 | 50.06596 | -39.73628 | 33082 ft | 506 kts | 63° |
| 2026-04-16 07:52 | 50.09171 | -39.63411 | 33092 ft | 507 kts | 64° |
| 2026-04-16 07:53 | 50.11711 | -39.53197 | 33071 ft | 508 kts | 64° |
| 2026-04-16 07:53 | 50.14252 | -39.42900 | 33063 ft | 509 kts | 64° |
| 2026-04-16 07:54 | 50.16783 | -39.32598 | 33066 ft | 509 kts | 64° |
| 2026-04-16 07:54 | 50.19309 | -39.22275 | 33081 ft | 509 kts | 64° |
| 2026-04-16 07:55 | 50.21827 | -39.11943 | 33078 ft | 509 kts | 64° |
| 2026-04-16 07:55 | 50.24319 | -39.01670 | 33062 ft | 509 kts | 64° |
| 2026-04-16 07:56 | 50.26825 | -38.91287 | 33050 ft | 509 kts | 64° |
| 2026-04-16 07:56 | 50.29312 | -38.80934 | 33058 ft | 507 kts | 64° |
| 2026-04-16 07:57 | 50.31766 | -38.70668 | 33064 ft | 507 kts | 65° |
| 2026-04-16 07:57 | 50.34227 | -38.60329 | 33053 ft | 506 kts | 65° |
| 2026-04-16 07:58 | 50.36675 | -38.49995 | 33052 ft | 506 kts | 65° |
| 2026-04-16 07:58 | 50.39114 | -38.39647 | 33048 ft | 506 kts | 65° |
| 2026-04-16 07:59 | 50.41543 | -38.29295 | 33050 ft | 506 kts | 65° |
| 2026-04-16 07:59 | 50.43561 | -38.20658 | 33048 ft | 506 kts | 65° |
| 2026-04-16 08:00 | 50.45975 | -38.10274 | 33053 ft | 507 kts | 65° |
| 2026-04-16 08:00 | 50.48775 | -37.98169 | 33044 ft | 507 kts | 65° |
| 2026-04-16 08:01 | 50.50775 | -37.89482 | 33052 ft | 508 kts | 66° |
| 2026-04-16 08:01 | 50.53169 | -37.79034 | 33033 ft | 508 kts | 66° |
| 2026-04-16 08:02 | 50.55553 | -37.68579 | 33029 ft | 508 kts | 66° |
| 2026-04-16 08:02 | 50.59102 | -37.52916 | 33021 ft | 508 kts | 66° |
| 2026-04-16 08:03 | 50.61465 | -37.42423 | 33029 ft | 508 kts | 67° |
| 2026-04-16 08:03 | 50.63819 | -37.31921 | 33016 ft | 508 kts | 67° |
| 2026-04-16 08:04 | 50.66165 | -37.21400 | 33009 ft | 508 kts | 67° |
| 2026-04-16 08:04 | 50.68482 | -37.10953 | 33008 ft | 508 kts | 67° |
| 2026-04-16 08:05 | 50.70809 | -37.00414 | 33005 ft | 508 kts | 68° |
| 2026-04-16 08:05 | 50.73128 | -36.89854 | 32998 ft | 509 kts | 68° |
| 2026-04-16 08:06 | 50.75422 | -36.79357 | 32997 ft | 509 kts | 68° |
| 2026-04-16 08:06 | 50.77722 | -36.68777 | 32995 ft | 509 kts | 68° |
| 2026-04-16 08:07 | 50.80013 | -36.58183 | 33004 ft | 509 kts | 68° |
| 2026-04-16 08:07 | 50.82295 | -36.47577 | 32987 ft | 509 kts | 68° |
| 2026-04-16 08:08 | 50.84568 | -36.36955 | 32988 ft | 509 kts | 69° |
| 2026-04-16 08:08 | 50.86831 | -36.26325 | 32968 ft | 509 kts | 69° |
| 2026-04-16 08:09 | 50.89085 | -36.15683 | 32975 ft | 510 kts | 69° |
| 2026-04-16 08:09 | 50.91318 | -36.05088 | 32968 ft | 510 kts | 69° |
| 2026-04-16 08:10 | 50.93556 | -35.94412 | 32958 ft | 510 kts | 69° |
| 2026-04-16 08:10 | 50.95784 | -35.83723 | 32959 ft | 510 kts | 69° |
| 2026-04-16 08:11 | 50.98001 | -35.73029 | 32952 ft | 510 kts | 69° |
| 2026-04-16 08:11 | 51.00214 | -35.62303 | 32945 ft | 510 kts | 69° |
| 2026-04-16 08:12 | 51.02400 | -35.51645 | 32946 ft | 510 kts | 70° |
| 2026-04-16 08:12 | 51.04589 | -35.40917 | 32940 ft | 510 kts | 70° |
| 2026-04-16 08:13 | 51.06770 | -35.30170 | 32951 ft | 510 kts | 70° |
| 2026-04-16 08:13 | 51.08940 | -35.19419 | 32939 ft | 511 kts | 70° |
| 2026-04-16 08:14 | 51.11089 | -35.08708 | 32909 ft | 511 kts | 70° |
| 2026-04-16 08:14 | 51.13240 | -34.97934 | 32922 ft | 510 kts | 70° |
| 2026-04-16 08:15 | 51.15378 | -34.87164 | 32921 ft | 510 kts | 70° |
| 2026-04-16 08:15 | 51.17507 | -34.76382 | 32928 ft | 509 kts | 71° |
| 2026-04-16 08:16 | 51.19625 | -34.65591 | 32910 ft | 509 kts | 71° |
| 2026-04-16 08:16 | 51.21713 | -34.54893 | 32901 ft | 509 kts | 71° |
| 2026-04-16 08:17 | 51.23809 | -34.44094 | 32901 ft | 509 kts | 71° |
| 2026-04-16 08:17 | 51.25894 | -34.33294 | 32900 ft | 508 kts | 71° |
| 2026-04-16 08:19 | 51.34115 | -33.90094 | 32890 ft | 508 kts | 71° |
| 2026-04-16 08:20 | 51.36149 | -33.79247 | 32866 ft | 508 kts | 72° |
| 2026-04-16 08:20 | 51.38169 | -33.68417 | 32866 ft | 508 kts | 72° |
| 2026-04-16 08:21 | 51.40167 | -33.57639 | 32859 ft | 507 kts | 72° |
| 2026-04-16 08:21 | 51.42165 | -33.46800 | 32864 ft | 507 kts | 72° |
| 2026-04-16 08:22 | 51.44152 | -33.35956 | 32852 ft | 507 kts | 72° |
| 2026-04-16 08:22 | 51.46126 | -33.25116 | 32847 ft | 506 kts | 72° |
| 2026-04-16 08:23 | 51.48091 | -33.14263 | 32846 ft | 506 kts | 72° |
| 2026-04-16 08:23 | 51.50033 | -33.03474 | 32828 ft | 506 kts | 72° |
| 2026-04-16 08:24 | 51.51981 | -32.92590 | 32834 ft | 506 kts | 73° |
| 2026-04-16 08:24 | 51.53916 | -32.81710 | 32827 ft | 506 kts | 73° |
| 2026-04-16 08:25 | 51.55840 | -32.70824 | 32819 ft | 506 kts | 73° |
| 2026-04-16 08:25 | 51.57743 | -32.59995 | 32822 ft | 506 kts | 73° |
| 2026-04-16 08:26 | 51.59649 | -32.49082 | 32818 ft | 507 kts | 73° |
| 2026-04-16 08:26 | 51.61545 | -32.38157 | 32811 ft | 508 kts | 74° |
| 2026-04-16 08:27 | 51.63437 | -32.27186 | 32795 ft | 509 kts | 73° |
| 2026-04-16 08:27 | 51.65321 | -32.16196 | 32789 ft | 509 kts | 74° |
| 2026-04-16 08:28 | 51.67193 | -32.05203 | 32792 ft | 509 kts | 74° |
| 2026-04-16 08:28 | 51.69043 | -31.94275 | 32785 ft | 508 kts | 74° |
| 2026-04-16 08:29 | 51.70893 | -31.83273 | 32797 ft | 508 kts | 74° |
| 2026-04-16 08:29 | 51.72736 | -31.72244 | 32782 ft | 508 kts | 74° |
| 2026-04-16 08:30 | 51.74569 | -31.61202 | 32773 ft | 510 kts | 75° |
| 2026-04-16 08:30 | 51.76398 | -31.50122 | 32764 ft | 510 kts | 75° |
| 2026-04-16 08:31 | 51.78201 | -31.39122 | 32751 ft | 510 kts | 75° |
| 2026-04-16 08:31 | 51.80003 | -31.28055 | 32749 ft | 508 kts | 75° |
| 2026-04-16 08:32 | 51.81783 | -31.17053 | 32746 ft | 503 kts | 75° |
| 2026-04-16 08:32 | 51.83544 | -31.06097 | 32749 ft | 503 kts | 75° |
| 2026-04-16 08:33 | 51.85294 | -30.95132 | 32745 ft | 504 kts | 75° |
| 2026-04-16 08:33 | 51.87024 | -30.84224 | 32745 ft | 503 kts | 75° |
| 2026-04-16 08:34 | 51.88765 | -30.73175 | 32745 ft | 508 kts | 75° |
| 2026-04-16 08:34 | 51.90510 | -30.62029 | 32732 ft | 510 kts | 76° |
| 2026-04-16 08:35 | 51.92227 | -30.50977 | 32730 ft | 507 kts | 76° |
| 2026-04-16 08:35 | 51.93940 | -30.39883 | 32714 ft | 505 kts | 76° |
| 2026-04-16 08:36 | 51.95625 | -30.28892 | 32712 ft | 500 kts | 76° |
| 2026-04-16 08:36 | 51.97287 | -30.17975 | 32711 ft | 504 kts | 76° |
| 2026-04-16 08:37 | 51.98951 | -30.06986 | 32708 ft | 505 kts | 76° |
| 2026-04-16 08:37 | 52.00895 | -29.96037 | 32710 ft | 505 kts | 68° |
| 2026-04-16 08:38 | 52.03581 | -29.85440 | 32707 ft | 509 kts | 67° |
| 2026-04-16 08:38 | 52.06307 | -29.74818 | 32697 ft | 507 kts | 67° |
| 2026-04-16 08:39 | 52.08977 | -29.64233 | 32685 ft | 505 kts | 68° |
| 2026-04-16 08:39 | 52.11605 | -29.53666 | 32680 ft | 503 kts | 68° |
| 2026-04-16 08:40 | 52.14184 | -29.43213 | 32685 ft | 499 kts | 68° |
| 2026-04-16 08:40 | 52.16763 | -29.32721 | 32680 ft | 498 kts | 68° |
| 2026-04-16 08:41 | 52.19333 | -29.22221 | 32675 ft | 498 kts | 68° |
| 2026-04-16 08:41 | 52.21878 | -29.11776 | 32663 ft | 499 kts | 68° |
| 2026-04-16 08:42 | 52.24441 | -29.01203 | 32654 ft | 502 kts | 68° |
| 2026-04-16 08:42 | 52.27004 | -28.90584 | 32658 ft | 503 kts | 69° |
| 2026-04-16 08:43 | 52.29561 | -28.79939 | 32655 ft | 500 kts | 69° |
| 2026-04-16 08:43 | 52.32084 | -28.69377 | 32649 ft | 496 kts | 69° |
| 2026-04-16 08:44 | 52.34575 | -28.58899 | 32640 ft | 495 kts | 69° |
| 2026-04-16 08:44 | 52.37078 | -28.48320 | 32631 ft | 500 kts | 69° |
| 2026-04-16 08:45 | 52.39577 | -28.37711 | 32628 ft | 503 kts | 70° |
| 2026-04-16 08:45 | 52.42083 | -28.27012 | 32623 ft | 503 kts | 69° |
| 2026-04-16 08:46 | 52.44577 | -28.16318 | 32626 ft | 499 kts | 70° |
| 2026-04-16 08:46 | 52.47042 | -28.05691 | 32620 ft | 498 kts | 70° |
| 2026-04-16 08:47 | 52.49482 | -27.95119 | 32605 ft | 498 kts | 70° |
| 2026-04-16 08:47 | 52.51931 | -27.84457 | 32580 ft | 499 kts | 70° |
| 2026-04-16 08:48 | 52.54379 | -27.73746 | 32599 ft | 500 kts | 70° |
| 2026-04-16 08:48 | 52.56406 | -27.64835 | 32597 ft | 501 kts | 71° |
| 2026-04-16 08:49 | 52.58837 | -27.54099 | 32596 ft | 501 kts | 70° |
| 2026-04-16 08:49 | 52.61650 | -27.41615 | 32587 ft | 498 kts | 70° |
| 2026-04-16 08:50 | 52.63656 | -27.32655 | 32590 ft | 497 kts | 70° |
| 2026-04-16 08:50 | 52.66039 | -27.21961 | 32579 ft | 497 kts | 71° |
| 2026-04-16 08:51 | 52.68401 | -27.11316 | 32574 ft | 498 kts | 71° |
| 2026-04-16 08:51 | 52.70770 | -27.00582 | 32569 ft | 498 kts | 71° |
| 2026-04-16 08:52 | 52.73127 | -26.89839 | 32572 ft | 498 kts | 71° |
| 2026-04-16 08:52 | 52.75462 | -26.79149 | 32571 ft | 497 kts | 71° |
| 2026-04-16 08:53 | 52.77802 | -26.68380 | 32564 ft | 497 kts | 71° |
| 2026-04-16 08:53 | 52.80127 | -26.57619 | 32564 ft | 497 kts | 72° |
| 2026-04-16 08:54 | 52.82445 | -26.46840 | 32558 ft | 497 kts | 71° |
| 2026-04-16 08:54 | 52.84740 | -26.36110 | 32555 ft | 497 kts | 72° |
| 2026-04-16 08:55 | 52.87039 | -26.25299 | 32555 ft | 497 kts | 72° |
| 2026-04-16 08:55 | 52.89328 | -26.14481 | 32549 ft | 497 kts | 72° |
| 2026-04-16 08:56 | 52.91603 | -26.03678 | 32555 ft | 496 kts | 72° |
| 2026-04-16 08:56 | 52.93850 | -25.92942 | 32551 ft | 496 kts | 72° |
| 2026-04-16 08:57 | 52.96102 | -25.82124 | 32551 ft | 495 kts | 72° |
| 2026-04-16 08:57 | 52.98338 | -25.71329 | 32548 ft | 495 kts | 72° |
| 2026-04-16 08:58 | 53.00563 | -25.60526 | 32543 ft | 494 kts | 72° |
| 2026-04-16 08:58 | 53.02782 | -25.49692 | 32551 ft | 495 kts | 72° |
| 2026-04-16 08:59 | 53.04977 | -25.38922 | 32546 ft | 495 kts | 72° |
| 2026-04-16 08:59 | 53.07177 | -25.28063 | 32547 ft | 496 kts | 72° |
| 2026-04-16 09:00 | 53.09370 | -25.17179 | 32537 ft | 496 kts | 73° |
| 2026-04-16 09:00 | 53.11558 | -25.06262 | 32548 ft | 497 kts | 73° |
| 2026-04-16 09:01 | 53.14821 | -24.89867 | 32543 ft | 498 kts | 73° |
| 2026-04-16 09:02 | 53.16986 | -24.78908 | 32543 ft | 498 kts | 73° |
| 2026-04-16 09:02 | 53.18056 | -24.73471 | 32676 ft | 501 kts | 73° |
| 2026-04-16 09:02 | 53.19140 | -24.67942 | 32991 ft | 501 kts | 73° |
| 2026-04-16 09:02 | 53.20223 | -24.62409 | 33377 ft | 500 kts | 73° |
| 2026-04-16 09:03 | 53.21302 | -24.56877 | 33645 ft | 501 kts | 73° |
| 2026-04-16 09:03 | 53.22379 | -24.51343 | 33919 ft | 501 kts | 73° |
| 2026-04-16 09:03 | 53.23452 | -24.45814 | 34182 ft | 501 kts | 73° |
| 2026-04-16 09:03 | 53.24513 | -24.40325 | 34417 ft | 502 kts | 73° |
| 2026-04-16 09:04 | 53.25587 | -24.34757 | 34478 ft | 504 kts | 73° |
| 2026-04-16 09:04 | 53.27731 | -24.23592 | 34532 ft | 504 kts | 74° |
| 2026-04-16 09:05 | 53.29861 | -24.12435 | 34542 ft | 503 kts | 74° |
| 2026-04-16 09:05 | 53.31964 | -24.01352 | 34542 ft | 502 kts | 74° |
| 2026-04-16 09:06 | 53.34064 | -23.90218 | 34541 ft | 502 kts | 74° |
| 2026-04-16 09:06 | 53.36155 | -23.79069 | 34542 ft | 501 kts | 74° |
| 2026-04-16 09:07 | 53.38234 | -23.67915 | 34541 ft | 502 kts | 74° |
| 2026-04-16 09:07 | 53.40304 | -23.56742 | 34544 ft | 502 kts | 74° |
| 2026-04-16 09:08 | 53.42369 | -23.45532 | 34542 ft | 503 kts | 75° |
| 2026-04-16 09:08 | 53.44424 | -23.34303 | 34542 ft | 504 kts | 75° |
| 2026-04-16 09:09 | 53.46471 | -23.23054 | 34529 ft | 504 kts | 75° |
| 2026-04-16 09:09 | 53.48499 | -23.11843 | 34538 ft | 505 kts | 75° |
| 2026-04-16 09:10 | 53.50532 | -23.00528 | 34541 ft | 506 kts | 75° |
| 2026-04-16 09:10 | 53.52556 | -22.89199 | 34539 ft | 506 kts | 75° |
| 2026-04-16 09:11 | 53.54574 | -22.77833 | 34530 ft | 506 kts | 75° |
| 2026-04-16 09:11 | 53.56578 | -22.66469 | 34534 ft | 506 kts | 75° |
| 2026-04-16 09:12 | 53.58570 | -22.55105 | 34536 ft | 506 kts | 75° |
| 2026-04-16 09:12 | 53.60541 | -22.43786 | 34532 ft | 507 kts | 76° |
| 2026-04-16 09:13 | 53.62514 | -22.32384 | 34522 ft | 507 kts | 76° |
| 2026-04-16 09:13 | 53.64479 | -22.20956 | 34546 ft | 507 kts | 76° |
| 2026-04-16 09:14 | 53.66428 | -22.09545 | 34529 ft | 507 kts | 76° |
| 2026-04-16 09:14 | 53.68371 | -21.98094 | 34527 ft | 507 kts | 76° |
| 2026-04-16 09:15 | 53.70301 | -21.86650 | 34530 ft | 507 kts | 76° |
| 2026-04-16 09:15 | 53.72209 | -21.75257 | 34540 ft | 507 kts | 76° |
| 2026-04-16 09:16 | 53.74121 | -21.63769 | 34530 ft | 507 kts | 76° |
| 2026-04-16 09:16 | 53.76020 | -21.52279 | 34529 ft | 507 kts | 76° |
| 2026-04-16 09:17 | 53.77896 | -21.40855 | 34534 ft | 507 kts | 76° |
| 2026-04-16 09:17 | 53.79775 | -21.29335 | 34531 ft | 507 kts | 77° |
| 2026-04-16 09:18 | 53.81641 | -21.17811 | 34529 ft | 507 kts | 77° |
| 2026-04-16 09:18 | 53.83496 | -21.06281 | 34529 ft | 508 kts | 77° |
| 2026-04-16 09:19 | 53.85342 | -20.94728 | 34533 ft | 508 kts | 77° |
| 2026-04-16 09:19 | 53.87180 | -20.83144 | 34517 ft | 508 kts | 77° |
| 2026-04-16 09:20 | 53.88992 | -20.71647 | 34532 ft | 508 kts | 77° |
| 2026-04-16 09:20 | 53.90807 | -20.60048 | 34533 ft | 509 kts | 77° |
| 2026-04-16 09:21 | 53.92614 | -20.48421 | 34534 ft | 510 kts | 77° |
| 2026-04-16 09:21 | 53.94411 | -20.36774 | 34534 ft | 510 kts | 77° |
| 2026-04-16 09:22 | 53.96199 | -20.25097 | 34529 ft | 511 kts | 78° |
| 2026-04-16 09:22 | 53.97979 | -20.13400 | 34534 ft | 511 kts | 78° |
| 2026-04-16 09:23 | 53.99668 | -20.01642 | 34532 ft | 510 kts | 82° |
| 2026-04-16 09:23 | 54.00317 | -19.89764 | 34537 ft | 506 kts | 91° |
| 2026-04-16 09:24 | 54.00483 | -19.77771 | 34520 ft | 507 kts | 91° |
| 2026-04-16 09:24 | 54.00658 | -19.65786 | 34537 ft | 507 kts | 91° |
| 2026-04-16 09:25 | 54.00854 | -19.53857 | 34539 ft | 508 kts | 91° |
| 2026-04-16 09:25 | 54.01054 | -19.41865 | 34540 ft | 508 kts | 91° |
| 2026-04-16 09:26 | 54.01243 | -19.29842 | 34531 ft | 508 kts | 91° |
| 2026-04-16 09:26 | 54.01418 | -19.17813 | 34534 ft | 508 kts | 92° |
| 2026-04-16 09:27 | 54.01579 | -19.05792 | 34541 ft | 508 kts | 92° |
| 2026-04-16 09:27 | 54.01729 | -18.93764 | 34518 ft | 509 kts | 92° |
| 2026-04-16 09:28 | 54.01866 | -18.81791 | 34538 ft | 509 kts | 92° |
| 2026-04-16 09:28 | 54.01992 | -18.69753 | 34530 ft | 509 kts | 92° |
| 2026-04-16 09:29 | 54.02105 | -18.57716 | 34542 ft | 510 kts | 92° |
| 2026-04-16 09:29 | 54.02207 | -18.45647 | 34542 ft | 510 kts | 92° |
| 2026-04-16 09:30 | 54.02297 | -18.33576 | 34548 ft | 511 kts | 92° |
| 2026-04-16 09:30 | 54.02375 | -18.21487 | 34548 ft | 511 kts | 92° |
| 2026-04-16 09:31 | 54.02441 | -18.09438 | 34542 ft | 511 kts | 93° |
| 2026-04-16 09:31 | 54.02495 | -17.97331 | 34561 ft | 512 kts | 93° |
| 2026-04-16 09:32 | 54.02536 | -17.85209 | 34552 ft | 512 kts | 93° |
| 2026-04-16 09:32 | 54.02566 | -17.73086 | 34548 ft | 512 kts | 93° |
| 2026-04-16 09:33 | 54.02583 | -17.60982 | 34539 ft | 512 kts | 93° |
| 2026-04-16 09:33 | 54.02589 | -17.48947 | 34555 ft | 512 kts | 94° |
| 2026-04-16 09:34 | 54.02581 | -17.36847 | 34562 ft | 512 kts | 94° |
| 2026-04-16 09:34 | 54.02562 | -17.24733 | 34579 ft | 512 kts | 94° |
| 2026-04-16 09:35 | 54.02531 | -17.12643 | 34560 ft | 511 kts | 94° |
| 2026-04-16 09:35 | 54.02488 | -17.00535 | 34564 ft | 512 kts | 94° |
| 2026-04-16 09:36 | 54.02442 | -16.90464 | 34574 ft | 512 kts | 94° |
| 2026-04-16 09:36 | 54.02364 | -16.76356 | 34585 ft | 513 kts | 94° |
| 2026-04-16 09:37 | 54.02298 | -16.66178 | 34582 ft | 513 kts | 94° |
| 2026-04-16 09:37 | 54.02208 | -16.54121 | 34594 ft | 513 kts | 95° |
| 2026-04-16 09:38 | 54.02106 | -16.41975 | 34599 ft | 513 kts | 95° |
| 2026-04-16 09:38 | 54.01991 | -16.29819 | 34596 ft | 513 kts | 95° |
| 2026-04-16 09:39 | 54.01864 | -16.17653 | 34595 ft | 513 kts | 95° |
| 2026-04-16 09:39 | 54.01726 | -16.05621 | 34595 ft | 512 kts | 95° |
| 2026-04-16 09:40 | 54.01575 | -15.93510 | 34594 ft | 512 kts | 95° |
| 2026-04-16 09:40 | 54.01411 | -15.81376 | 34609 ft | 512 kts | 95° |
| 2026-04-16 09:41 | 54.01235 | -15.69258 | 34619 ft | 513 kts | 95° |
| 2026-04-16 09:41 | 54.01047 | -15.57130 | 34616 ft | 513 kts | 95° |
| 2026-04-16 09:42 | 54.00848 | -15.45043 | 34600 ft | 514 kts | 96° |
| 2026-04-16 09:42 | 54.00636 | -15.32901 | 34624 ft | 514 kts | 96° |
| 2026-04-16 09:43 | 54.00411 | -15.20751 | 34639 ft | 514 kts | 96° |
| 2026-04-16 09:43 | 54.00175 | -15.08583 | 34653 ft | 515 kts | 96° |
| 2026-04-16 09:44 | 53.99943 | -14.96405 | 34649 ft | 516 kts | 95° |
| 2026-04-16 09:44 | 53.99965 | -14.84249 | 34643 ft | 517 kts | 93° |
| 2026-04-16 09:45 | 54.00061 | -14.72041 | 34660 ft | 516 kts | 93° |
| 2026-04-16 09:45 | 54.00105 | -14.59846 | 34676 ft | 516 kts | 94° |
| 2026-04-16 09:46 | 54.00107 | -14.47635 | 34670 ft | 516 kts | 94° |
| 2026-04-16 09:46 | 54.00094 | -14.35436 | 34694 ft | 516 kts | 94° |
| 2026-04-16 09:47 | 54.00072 | -14.23220 | 34703 ft | 518 kts | 94° |
| 2026-04-16 09:47 | 54.00040 | -14.10960 | 34665 ft | 518 kts | 95° |
| 2026-04-16 09:48 | 53.99996 | -13.98811 | 34694 ft | 515 kts | 95° |
| 2026-04-16 09:48 | 53.99750 | -13.86669 | 34709 ft | 512 kts | 97° |
| 2026-04-16 09:49 | 53.99370 | -13.74568 | 34702 ft | 511 kts | 98° |
| 2026-04-16 09:49 | 53.98996 | -13.62567 | 34705 ft | 512 kts | 97° |
| 2026-04-16 09:50 | 53.98636 | -13.50474 | 34697 ft | 512 kts | 97° |
| 2026-04-16 09:50 | 53.98275 | -13.38356 | 34712 ft | 513 kts | 97° |
| 2026-04-16 09:51 | 53.97903 | -13.26244 | 34730 ft | 513 kts | 97° |
| 2026-04-16 09:51 | 53.97516 | -13.14124 | 34728 ft | 514 kts | 97° |
| 2026-04-16 09:52 | 53.97115 | -13.01959 | 34742 ft | 515 kts | 97° |
| 2026-04-16 09:52 | 53.96701 | -12.89789 | 34742 ft | 516 kts | 98° |
| 2026-04-16 09:53 | 53.96277 | -12.77673 | 34749 ft | 517 kts | 98° |
| 2026-04-16 09:53 | 53.95836 | -12.65432 | 34746 ft | 518 kts | 98° |
| 2026-04-16 09:54 | 53.95383 | -12.53204 | 34752 ft | 518 kts | 98° |
| 2026-04-16 09:54 | 53.94918 | -12.40985 | 34764 ft | 519 kts | 98° |
| 2026-04-16 09:55 | 53.94442 | -12.28819 | 34761 ft | 519 kts | 98° |
| 2026-04-16 09:55 | 53.93951 | -12.16574 | 34771 ft | 520 kts | 98° |
| 2026-04-16 09:56 | 53.93447 | -12.04320 | 34776 ft | 520 kts | 98° |
| 2026-04-16 09:56 | 53.92931 | -11.92086 | 34793 ft | 520 kts | 98° |
| 2026-04-16 09:57 | 53.92400 | -11.79817 | 34798 ft | 521 kts | 98° |
| 2026-04-16 09:57 | 53.91859 | -11.67565 | 34789 ft | 521 kts | 99° |
| 2026-04-16 09:58 | 53.91306 | -11.55364 | 34789 ft | 522 kts | 99° |
| 2026-04-16 09:58 | 53.90737 | -11.43079 | 34810 ft | 524 kts | 99° |
| 2026-04-16 09:59 | 53.90152 | -11.30719 | 34807 ft | 525 kts | 99° |
| 2026-04-16 09:59 | 53.89554 | -11.18363 | 34815 ft | 526 kts | 99° |
| 2026-04-16 10:00 | 53.88943 | -11.05973 | 34817 ft | 526 kts | 99° |
| 2026-04-16 10:00 | 53.88324 | -10.93695 | 34827 ft | 526 kts | 99° |
| 2026-04-16 10:01 | 53.87365 | -10.75162 | 34824 ft | 525 kts | 99° |
| 2026-04-16 10:01 | 53.86711 | -10.62829 | 34835 ft | 524 kts | 99° |
| 2026-04-16 10:02 | 53.86045 | -10.50523 | 34829 ft | 524 kts | 99° |
| 2026-04-16 10:02 | 53.85367 | -10.38236 | 34847 ft | 524 kts | 99° |
| 2026-04-16 10:03 | 53.84678 | -10.25959 | 34851 ft | 524 kts | 100° |
| 2026-04-16 10:03 | 53.83978 | -10.13738 | 34854 ft | 524 kts | 100° |
| 2026-04-16 10:04 | 53.83262 | -10.01435 | 34861 ft | 525 kts | 100° |
| 2026-04-16 10:04 | 53.82534 | -9.89155 | 34862 ft | 524 kts | 100° |
| 2026-04-16 10:05 | 53.81791 | -9.76848 | 34862 ft | 526 kts | 100° |
| 2026-04-16 10:05 | 53.81035 | -9.64531 | 34866 ft | 527 kts | 100° |
| 2026-04-16 10:06 | 53.80268 | -9.52248 | 34865 ft | 528 kts | 100° |
| 2026-04-16 10:06 | 53.79483 | -9.39881 | 34846 ft | 530 kts | 100° |
| 2026-04-16 10:07 | 53.78684 | -9.27492 | 34869 ft | 530 kts | 101° |
| 2026-04-16 10:07 | 53.77869 | -9.15075 | 34876 ft | 531 kts | 101° |
| 2026-04-16 10:08 | 53.77041 | -9.02646 | 34877 ft | 532 kts | 101° |
| 2026-04-16 10:08 | 53.76201 | -8.90236 | 34879 ft | 531 kts | 101° |
| 2026-04-16 10:09 | 53.75349 | -8.77836 | 34873 ft | 531 kts | 101° |
| 2026-04-16 10:09 | 53.74481 | -8.65415 | 34878 ft | 532 kts | 101° |
| 2026-04-16 10:10 | 53.73603 | -8.53012 | 34881 ft | 532 kts | 101° |
| 2026-04-16 10:10 | 53.72710 | -8.40607 | 34887 ft | 532 kts | 101° |
| 2026-04-16 10:11 | 53.71809 | -8.28278 | 34881 ft | 532 kts | 101° |
| 2026-04-16 10:11 | 53.70890 | -8.15866 | 34874 ft | 532 kts | 101° |
| 2026-04-16 10:12 | 53.69958 | -8.03457 | 34898 ft | 533 kts | 101° |
| 2026-04-16 10:12 | 53.69011 | -7.91030 | 34910 ft | 534 kts | 102° |
| 2026-04-16 10:13 | 53.68049 | -7.78594 | 34904 ft | 535 kts | 102° |
| 2026-04-16 10:13 | 53.67073 | -7.66145 | 34918 ft | 536 kts | 102° |
| 2026-04-16 10:14 | 53.66089 | -7.53749 | 34918 ft | 537 kts | 102° |
| 2026-04-16 10:14 | 53.65086 | -7.41279 | 34924 ft | 537 kts | 102° |
| 2026-04-16 10:15 | 53.64066 | -7.28772 | 34927 ft | 538 kts | 102° |
| 2026-04-16 10:15 | 53.63041 | -7.16365 | 34934 ft | 538 kts | 102° |
| 2026-04-16 10:16 | 53.61995 | -7.03876 | 34944 ft | 538 kts | 102° |
| 2026-04-16 10:16 | 53.60936 | -6.91387 | 34941 ft | 538 kts | 102° |
| 2026-04-16 10:17 | 53.59864 | -6.78903 | 34952 ft | 538 kts | 102° |
| 2026-04-16 10:17 | 53.58786 | -6.66508 | 34942 ft | 538 kts | 102° |
| 2026-04-16 10:18 | 53.57688 | -6.54039 | 34954 ft | 538 kts | 102° |
| 2026-04-16 10:18 | 53.56576 | -6.41573 | 34934 ft | 538 kts | 102° |
| 2026-04-16 10:19 | 53.55453 | -6.29124 | 34972 ft | 538 kts | 103° |
| 2026-04-16 10:19 | 53.54315 | -6.16656 | 34971 ft | 540 kts | 103° |
| 2026-04-16 10:20 | 53.53161 | -6.04171 | 34977 ft | 541 kts | 103° |
| 2026-04-16 10:20 | 53.52000 | -5.91750 | 34985 ft | 542 kts | 103° |
| 2026-04-16 10:21 | 53.50816 | -5.79225 | 35000 ft | 542 kts | 103° |
| 2026-04-16 10:21 | 53.49618 | -5.66698 | 35000 ft | 543 kts | 103° |
| 2026-04-16 10:22 | 53.48613 | -5.56282 | 35006 ft | 543 kts | 103° |
| 2026-04-16 10:22 | 53.47729 | -5.43679 | 35006 ft | 546 kts | 95° |
| 2026-04-16 10:23 | 53.47432 | -5.28862 | 35005 ft | 546 kts | 95° |
| 2026-04-16 10:23 | 53.47162 | -5.18198 | 35007 ft | 545 kts | 96° |
| 2026-04-16 10:24 | 53.46763 | -5.05497 | 35008 ft | 545 kts | 96° |
| 2026-04-16 10:24 | 53.46337 | -4.92852 | 35017 ft | 545 kts | 96° |
| 2026-04-16 10:25 | 53.45904 | -4.80148 | 35019 ft | 545 kts | 96° |
| 2026-04-16 10:25 | 53.45447 | -4.67490 | 35017 ft | 545 kts | 96° |
| 2026-04-16 10:26 | 53.45002 | -4.54786 | 35006 ft | 546 kts | 96° |
| 2026-04-16 10:26 | 53.44597 | -4.42056 | 35014 ft | 546 kts | 96° |
| 2026-04-16 10:27 | 53.44159 | -4.29326 | 35020 ft | 546 kts | 96° |
| 2026-04-16 10:27 | 53.43640 | -4.16670 | 35022 ft | 547 kts | 97° |
| 2026-04-16 10:28 | 53.43100 | -4.03933 | 35018 ft | 546 kts | 96° |
| 2026-04-16 10:28 | 53.42567 | -3.91208 | 35023 ft | 547 kts | 96° |
| 2026-04-16 10:29 | 53.42045 | -3.78469 | 35023 ft | 547 kts | 96° |
| 2026-04-16 10:29 | 53.41514 | -3.65742 | 35021 ft | 547 kts | 97° |
| 2026-04-16 10:30 | 53.40967 | -3.53057 | 35014 ft | 547 kts | 96° |
| 2026-04-16 10:30 | 53.40414 | -3.40332 | 35027 ft | 547 kts | 96° |
| 2026-04-16 10:31 | 53.39848 | -3.27608 | 35035 ft | 547 kts | 97° |
| 2026-04-16 10:31 | 53.39271 | -3.14905 | 35041 ft | 547 kts | 97° |
| 2026-04-16 10:32 | 53.38745 | -3.02192 | 35037 ft | 547 kts | 95° |
| 2026-04-16 10:32 | 53.38286 | -2.89467 | 35050 ft | 547 kts | 95° |
| 2026-04-16 10:33 | 53.37810 | -2.76844 | 35035 ft | 546 kts | 96° |
| 2026-04-16 10:33 | 53.37302 | -2.64137 | 35043 ft | 546 kts | 96° |
| 2026-04-16 10:34 | 53.36779 | -2.51468 | 35037 ft | 546 kts | 96° |
| 2026-04-16 10:34 | 53.36244 | -2.38771 | 35049 ft | 545 kts | 96° |
| 2026-04-16 10:35 | 53.35677 | -2.26103 | 35047 ft | 545 kts | 98° |
| 2026-04-16 10:35 | 53.34491 | -2.13622 | 35053 ft | 542 kts | 103° |
| 2026-04-16 10:36 | 53.33136 | -2.01193 | 35050 ft | 543 kts | 103° |
| 2026-04-16 10:36 | 53.31823 | -1.88829 | 35048 ft | 543 kts | 102° |
| 2026-04-16 10:37 | 53.30515 | -1.76385 | 35041 ft | 543 kts | 102° |
| 2026-04-16 10:37 | 53.29190 | -1.63924 | 35040 ft | 543 kts | 102° |
| 2026-04-16 10:38 | 53.27847 | -1.51465 | 35036 ft | 543 kts | 102° |
| 2026-04-16 10:38 | 53.26507 | -1.39130 | 35049 ft | 543 kts | 102° |
| 2026-04-16 10:39 | 53.25146 | -1.26711 | 35048 ft | 543 kts | 103° |
| 2026-04-16 10:39 | 53.23771 | -1.14291 | 35040 ft | 543 kts | 103° |
| 2026-04-16 10:40 | 53.22382 | -1.01872 | 35038 ft | 545 kts | 103° |
| 2026-04-16 10:40 | 53.20979 | -0.89427 | 35064 ft | 545 kts | 103° |
| 2026-04-16 10:41 | 53.19559 | -0.76979 | 35064 ft | 547 kts | 103° |
| 2026-04-16 10:41 | 53.18133 | -0.64585 | 35079 ft | 547 kts | 103° |
| 2026-04-16 10:42 | 53.16686 | -0.52105 | 35079 ft | 547 kts | 103° |
| 2026-04-16 10:42 | 53.15228 | -0.39657 | 35073 ft | 547 kts | 103° |
| 2026-04-16 10:43 | 53.13768 | -0.27305 | 35077 ft | 546 kts | 103° |
| 2026-04-16 10:43 | 53.12278 | -0.14821 | 35076 ft | 546 kts | 103° |
| 2026-04-16 10:44 | 53.10796 | -0.02519 | 35075 ft | 545 kts | 103° |
| 2026-04-16 10:44 | 53.09293 | 0.09843 | 35063 ft | 544 kts | 103° |
| 2026-04-16 10:45 | 53.07777 | 0.22197 | 35062 ft | 544 kts | 103° |
| 2026-04-16 10:45 | 53.06249 | 0.34531 | 35067 ft | 543 kts | 103° |
| 2026-04-16 10:46 | 53.04713 | 0.46831 | 35081 ft | 543 kts | 103° |
| 2026-04-16 10:46 | 53.03171 | 0.59061 | 35079 ft | 543 kts | 103° |
| 2026-04-16 10:47 | 53.01610 | 0.71335 | 35084 ft | 543 kts | 104° |
| 2026-04-16 10:47 | 53.00038 | 0.83597 | 35068 ft | 542 kts | 104° |
| 2026-04-16 10:48 | 52.98455 | 0.95840 | 35099 ft | 542 kts | 104° |
| 2026-04-16 10:48 | 52.96311 | 1.07718 | 35116 ft | 539 kts | 113° |
| 2026-04-16 10:49 | 52.93608 | 1.19352 | 35111 ft | 540 kts | 114° |
| 2026-04-16 10:49 | 52.90900 | 1.30984 | 35110 ft | 541 kts | 114° |
| 2026-04-16 10:50 | 52.88217 | 1.42658 | 35112 ft | 542 kts | 113° |
| 2026-04-16 10:50 | 52.85542 | 1.54311 | 35104 ft | 542 kts | 113° |
| 2026-04-16 10:51 | 52.82856 | 1.65949 | 35115 ft | 540 kts | 113° |
| 2026-04-16 10:51 | 52.80176 | 1.77482 | 35113 ft | 539 kts | 113° |
| 2026-04-16 10:52 | 52.77474 | 1.89042 | 35126 ft | 538 kts | 114° |
| 2026-04-16 10:52 | 52.74767 | 2.00557 | 35083 ft | 537 kts | 114° |
| 2026-04-16 10:53 | 52.72053 | 2.12044 | 35145 ft | 536 kts | 113° |
| 2026-04-16 10:53 | 52.69350 | 2.23423 | 35148 ft | 536 kts | 114° |
| 2026-04-16 10:54 | 52.66617 | 2.34867 | 35152 ft | 537 kts | 114° |
| 2026-04-16 10:54 | 52.63866 | 2.46327 | 35162 ft | 537 kts | 114° |
| 2026-04-16 10:55 | 52.61107 | 2.57763 | 35168 ft | 537 kts | 114° |
| 2026-04-16 10:55 | 52.58340 | 2.69175 | 35167 ft | 537 kts | 114° |
| 2026-04-16 10:56 | 52.55567 | 2.80558 | 35171 ft | 536 kts | 114° |
| 2026-04-16 10:56 | 52.52583 | 2.91688 | 35176 ft | 535 kts | 118° |
| 2026-04-16 10:57 | 52.49350 | 3.02699 | 35166 ft | 534 kts | 118° |
| 2026-04-16 10:57 | 52.46104 | 3.13671 | 35166 ft | 533 kts | 118° |
| 2026-04-16 10:58 | 52.42873 | 3.24643 | 35161 ft | 534 kts | 118° |
| 2026-04-16 10:58 | 52.39648 | 3.35599 | 35162 ft | 535 kts | 118° |
| 2026-04-16 10:59 | 52.36418 | 3.46523 | 35166 ft | 535 kts | 118° |
| 2026-04-16 10:59 | 52.33163 | 3.57479 | 35185 ft | 535 kts | 118° |
| 2026-04-16 11:00 | 52.29893 | 3.68428 | 35184 ft | 535 kts | 118° |
| 2026-04-16 11:00 | 52.26632 | 3.79300 | 35199 ft | 534 kts | 118° |
| 2026-04-16 11:01 | 52.23351 | 3.90188 | 35196 ft | 534 kts | 118° |
| 2026-04-16 11:01 | 52.20056 | 4.01074 | 35197 ft | 533 kts | 118° |
| 2026-04-16 11:02 | 52.16763 | 4.11903 | 35204 ft | 533 kts | 118° |
| 2026-04-16 11:02 | 52.13481 | 4.22648 | 35201 ft | 533 kts | 118° |
| 2026-04-16 11:03 | 52.10169 | 4.33440 | 35187 ft | 533 kts | 118° |
| 2026-04-16 11:04 | 52.05201 | 4.49545 | 35185 ft | 533 kts | 119° |
| 2026-04-16 11:04 | 52.01840 | 4.60379 | 35210 ft | 533 kts | 119° |
| 2026-04-16 11:05 | 51.98512 | 4.71058 | 35187 ft | 533 kts | 119° |
| 2026-04-16 11:05 | 51.95151 | 4.81799 | 35184 ft | 534 kts | 119° |
| 2026-04-16 11:06 | 51.91783 | 4.92511 | 35183 ft | 533 kts | 119° |
| 2026-04-16 11:06 | 51.88407 | 5.03204 | 35193 ft | 533 kts | 119° |
| 2026-04-16 11:07 | 51.85025 | 5.13870 | 35201 ft | 533 kts | 119° |
| 2026-04-16 11:07 | 51.81612 | 5.24521 | 35197 ft | 532 kts | 121° |
| 2026-04-16 11:08 | 51.77984 | 5.34837 | 35211 ft | 531 kts | 123° |
| 2026-04-16 11:08 | 51.74240 | 5.45119 | 35217 ft | 531 kts | 123° |
| 2026-04-16 11:09 | 51.70519 | 5.55427 | 35211 ft | 531 kts | 122° |
| 2026-04-16 11:09 | 51.66825 | 5.65732 | 35184 ft | 530 kts | 122° |
| 2026-04-16 11:10 | 51.63763 | 5.74268 | 35213 ft | 529 kts | 122° |
| 2026-04-16 11:10 | 51.60072 | 5.84513 | 35211 ft | 529 kts | 122° |
| 2026-04-16 11:11 | 51.56375 | 5.94722 | 35209 ft | 528 kts | 122° |
| 2026-04-16 11:11 | 51.52665 | 6.04924 | 35211 ft | 527 kts | 123° |
| 2026-04-16 11:12 | 51.48978 | 6.15021 | 35212 ft | 527 kts | 123° |
| 2026-04-16 11:12 | 51.45260 | 6.25162 | 35213 ft | 527 kts | 123° |
| 2026-04-16 11:13 | 51.41529 | 6.35300 | 35213 ft | 527 kts | 123° |
| 2026-04-16 11:13 | 51.37800 | 6.45393 | 35214 ft | 526 kts | 123° |
| 2026-04-16 11:14 | 51.34054 | 6.55490 | 35209 ft | 527 kts | 123° |
| 2026-04-16 11:14 | 51.30272 | 6.65643 | 34255 ft | 536 kts | 123° |
| 2026-04-16 11:14 | 51.28375 | 6.70725 | 33361 ft | 527 kts | 123° |
| 2026-04-16 11:15 | 51.26513 | 6.75708 | 32519 ft | 517 kts | 123° |
| 2026-04-16 11:15 | 51.24711 | 6.80521 | 31699 ft | 508 kts | 123° |
| 2026-04-16 11:15 | 51.22905 | 6.85331 | 30839 ft | 502 kts | 124° |
| 2026-04-16 11:15 | 51.21106 | 6.90108 | 30217 ft | 500 kts | 124° |
| 2026-04-16 11:16 | 51.19306 | 6.94873 | 29607 ft | 506 kts | 124° |
| 2026-04-16 11:16 | 51.17471 | 6.99721 | 29024 ft | 515 kts | 123° |
| 2026-04-16 11:16 | 51.15614 | 7.04624 | 28163 ft | 518 kts | 123° |
| 2026-04-16 11:16 | 51.13782 | 7.09463 | 27482 ft | 503 kts | 123° |
| 2026-04-16 11:17 | 51.12000 | 7.14168 | 26901 ft | 487 kts | 123° |
| 2026-04-16 11:17 | 51.10274 | 7.18709 | 26363 ft | 472 kts | 123° |
| 2026-04-16 11:17 | 51.08597 | 7.23106 | 25876 ft | 459 kts | 123° |
| 2026-04-16 11:17 | 51.06930 | 7.27372 | 25377 ft | 451 kts | 127° |
| 2026-04-16 11:18 | 51.04915 | 7.31198 | 24901 ft | 452 kts | 139° |
| 2026-04-16 11:18 | 51.02493 | 7.34452 | 24420 ft | 463 kts | 148° |
| 2026-04-16 11:18 | 50.99763 | 7.37097 | 23888 ft | 466 kts | 157° |
| 2026-04-16 11:18 | 50.96867 | 7.39373 | 23257 ft | 463 kts | 158° |
| 2026-04-16 11:19 | 50.93996 | 7.41623 | 22700 ft | 459 kts | 157° |
| 2026-04-16 11:19 | 50.91158 | 7.43905 | 22151 ft | 454 kts | 156° |
| 2026-04-16 11:19 | 50.88364 | 7.46193 | 21651 ft | 449 kts | 156° |
| 2026-04-16 11:19 | 50.85593 | 7.48471 | 21132 ft | 445 kts | 156° |
| 2026-04-16 11:20 | 50.82856 | 7.50711 | 20617 ft | 441 kts | 156° |
| 2026-04-16 11:20 | 50.80143 | 7.52923 | 20118 ft | 437 kts | 156° |
| 2026-04-16 11:20 | 50.77454 | 7.55113 | 19631 ft | 433 kts | 156° |
| 2026-04-16 11:20 | 50.74784 | 7.57285 | 19138 ft | 430 kts | 156° |
| 2026-04-16 11:21 | 50.72135 | 7.59436 | 18652 ft | 426 kts | 156° |
| 2026-04-16 11:21 | 50.69535 | 7.61546 | 18109 ft | 424 kts | 156° |
| 2026-04-16 11:21 | 50.66927 | 7.63660 | 17583 ft | 419 kts | 156° |
| 2026-04-16 11:21 | 50.64344 | 7.65752 | 17080 ft | 415 kts | 156° |
| 2026-04-16 11:22 | 50.61784 | 7.67822 | 16558 ft | 411 kts | 156° |
| 2026-04-16 11:22 | 50.59249 | 7.69869 | 16075 ft | 407 kts | 156° |
| 2026-04-16 11:22 | 50.56746 | 7.71887 | 15630 ft | 402 kts | 156° |
| 2026-04-16 11:22 | 50.54265 | 7.73883 | 15175 ft | 398 kts | 156° |
| 2026-04-16 11:23 | 50.51813 | 7.75854 | 14724 ft | 393 kts | 156° |
| 2026-04-16 11:23 | 50.49388 | 7.77803 | 14300 ft | 389 kts | 156° |
| 2026-04-16 11:23 | 50.46989 | 7.79727 | 13854 ft | 385 kts | 155° |
| 2026-04-16 11:23 | 50.44614 | 7.81630 | 13379 ft | 381 kts | 155° |
| 2026-04-16 11:24 | 50.42353 | 7.83646 | 12959 ft | 377 kts | 148° |
| 2026-04-16 11:24 | 50.40263 | 7.86132 | 12639 ft | 377 kts | 143° |
| 2026-04-16 11:24 | 50.38242 | 7.88780 | 12318 ft | 375 kts | 142° |
| 2026-04-16 11:24 | 50.36256 | 7.91387 | 11939 ft | 369 kts | 142° |
| 2026-04-16 11:25 | 50.34292 | 7.93910 | 11588 ft | 362 kts | 143° |
| 2026-04-16 11:25 | 50.32349 | 7.96352 | 11248 ft | 355 kts | 143° |
| 2026-04-16 11:25 | 50.30424 | 7.98740 | 10911 ft | 349 kts | 144° |
| 2026-04-16 11:25 | 50.28529 | 8.01078 | 10593 ft | 343 kts | 144° |
| 2026-04-16 11:26 | 50.26702 | 8.03338 | 10275 ft | 336 kts | 142° |
| 2026-04-16 11:26 | 50.25116 | 8.05882 | 10194 ft | 316 kts | 130° |
| 2026-04-16 11:26 | 50.23857 | 8.08560 | 10081 ft | 294 kts | 128° |
| 2026-04-16 11:26 | 50.22676 | 8.11070 | 10002 ft | 283 kts | 129° |
| 2026-04-16 11:27 | 50.21492 | 8.13538 | 9948 ft | 285 kts | 129° |
| 2026-04-16 11:27 | 50.20294 | 8.16008 | 9865 ft | 284 kts | 129° |
| 2026-04-16 11:27 | 50.19101 | 8.18449 | 9792 ft | 281 kts | 130° |
| 2026-04-16 11:27 | 50.17918 | 8.20854 | 9730 ft | 278 kts | 130° |
| 2026-04-16 11:28 | 50.16737 | 8.23250 | 9663 ft | 277 kts | 130° |
| 2026-04-16 11:28 | 50.15564 | 8.25625 | 9600 ft | 276 kts | 130° |
| 2026-04-16 11:28 | 50.14385 | 8.28005 | 9534 ft | 278 kts | 129° |
| 2026-04-16 11:28 | 50.13189 | 8.30417 | 9473 ft | 283 kts | 129° |
| 2026-04-16 11:29 | 50.11981 | 8.32847 | 9400 ft | 284 kts | 129° |
| 2026-04-16 11:29 | 50.10796 | 8.35308 | 9317 ft | 281 kts | 122° |
| 2026-04-16 11:29 | 50.10203 | 8.38161 | 9243 ft | 279 kts | 91° |
| 2026-04-16 11:29 | 50.10486 | 8.41082 | 9192 ft | 277 kts | 70° |
| 2026-04-16 11:30 | 50.11168 | 8.43937 | 9159 ft | 284 kts | 68° |
| 2026-04-16 11:30 | 50.11877 | 8.46841 | 9067 ft | 288 kts | 69° |
| 2026-04-16 11:30 | 50.12587 | 8.49756 | 8972 ft | 286 kts | 69° |
| 2026-04-16 11:30 | 50.13287 | 8.52644 | 8889 ft | 283 kts | 69° |
| 2026-04-16 11:31 | 50.13975 | 8.55496 | 8817 ft | 280 kts | 69° |
| 2026-04-16 11:31 | 50.14654 | 8.58323 | 8754 ft | 277 kts | 69° |
| 2026-04-16 11:31 | 50.15331 | 8.61155 | 8705 ft | 280 kts | 69° |
| 2026-04-16 11:31 | 50.16012 | 8.64019 | 8643 ft | 283 kts | 69° |
| 2026-04-16 11:32 | 50.16699 | 8.66907 | 8586 ft | 283 kts | 69° |
| 2026-04-16 11:32 | 50.17383 | 8.69788 | 8509 ft | 282 kts | 69° |
| 2026-04-16 11:32 | 50.18063 | 8.72653 | 8438 ft | 281 kts | 69° |
| 2026-04-16 11:32 | 50.18733 | 8.75480 | 8373 ft | 280 kts | 69° |
| 2026-04-16 11:33 | 50.19409 | 8.78335 | 8314 ft | 280 kts | 69° |
| 2026-04-16 11:33 | 50.20084 | 8.81198 | 8248 ft | 281 kts | 69° |
| 2026-04-16 11:33 | 50.20760 | 8.84069 | 8174 ft | 281 kts | 69° |
| 2026-04-16 11:33 | 50.21433 | 8.86933 | 8103 ft | 280 kts | 69° |
| 2026-04-16 11:34 | 50.22105 | 8.89791 | 8038 ft | 280 kts | 69° |
| 2026-04-16 11:34 | 50.22774 | 8.92643 | 7967 ft | 279 kts | 69° |
| 2026-04-16 11:34 | 50.23430 | 8.95447 | 7904 ft | 278 kts | 69° |
| 2026-04-16 11:34 | 50.24093 | 8.98282 | 7840 ft | 277 kts | 69° |
| 2026-04-16 11:35 | 50.24754 | 9.01113 | 7782 ft | 277 kts | 69° |
| 2026-04-16 11:35 | 50.25414 | 9.03942 | 7720 ft | 277 kts | 69° |
| 2026-04-16 11:35 | 50.26073 | 9.06774 | 7651 ft | 277 kts | 69° |
| 2026-04-16 11:35 | 50.26732 | 9.09602 | 7592 ft | 277 kts | 69° |
| 2026-04-16 11:36 | 50.27391 | 9.12440 | 7524 ft | 278 kts | 69° |
| 2026-04-16 11:36 | 50.28052 | 9.15295 | 7454 ft | 279 kts | 69° |
| 2026-04-16 11:36 | 50.28713 | 9.18149 | 7404 ft | 280 kts | 69° |
| 2026-04-16 11:36 | 50.29377 | 9.21018 | 7308 ft | 280 kts | 69° |
| 2026-04-16 11:37 | 50.30029 | 9.23839 | 7235 ft | 279 kts | 69° |
| 2026-04-16 11:37 | 50.30685 | 9.26684 | 7174 ft | 277 kts | 69° |
| 2026-04-16 11:37 | 50.31335 | 9.29504 | 7095 ft | 274 kts | 69° |
| 2026-04-16 11:37 | 50.31980 | 9.32303 | 7048 ft | 272 kts | 69° |
| 2026-04-16 11:38 | 50.32621 | 9.35089 | 6981 ft | 272 kts | 69° |
| 2026-04-16 11:38 | 50.33180 | 9.37890 | 6879 ft | 268 kts | 82° |
| 2026-04-16 11:38 | 50.32946 | 9.40757 | 6844 ft | 271 kts | 115° |
| 2026-04-16 11:38 | 50.31820 | 9.43107 | 6807 ft | 274 kts | 143° |
| 2026-04-16 11:39 | 50.30131 | 9.44401 | 6744 ft | 271 kts | 171° |
| 2026-04-16 11:39 | 50.28293 | 9.44336 | 6665 ft | 264 kts | 199° |
| 2026-04-16 11:39 | 50.26693 | 9.43068 | 6604 ft | 255 kts | 221° |
| 2026-04-16 11:39 | 50.25380 | 9.41244 | 6524 ft | 250 kts | 231° |
| 2026-04-16 11:40 | 50.24569 | 9.38877 | 6474 ft | 249 kts | 253° |
| 2026-04-16 11:40 | 50.24031 | 9.36303 | 6438 ft | 256 kts | 252° |
| 2026-04-16 11:40 | 50.23432 | 9.33669 | 6373 ft | 257 kts | 251° |
| 2026-04-16 11:40 | 50.22830 | 9.31062 | 6296 ft | 253 kts | 251° |
| 2026-04-16 11:41 | 50.22239 | 9.28491 | 6227 ft | 250 kts | 251° |
| 2026-04-16 11:41 | 50.21652 | 9.25946 | 6177 ft | 250 kts | 251° |
| 2026-04-16 11:41 | 50.21061 | 9.23387 | 6129 ft | 251 kts | 251° |
| 2026-04-16 11:41 | 50.20465 | 9.20806 | 6046 ft | 253 kts | 251° |
| 2026-04-16 11:42 | 50.19867 | 9.18230 | 6004 ft | 252 kts | 250° |
| 2026-04-16 11:42 | 50.19276 | 9.15682 | 5924 ft | 244 kts | 250° |
| 2026-04-16 11:42 | 50.18711 | 9.13253 | 5812 ft | 233 kts | 251° |
| 2026-04-16 11:42 | 50.18163 | 9.10898 | 5632 ft | 229 kts | 251° |
| 2026-04-16 11:43 | 50.17631 | 9.08617 | 5551 ft | 225 kts | 250° |
| 2026-04-16 11:43 | 50.17097 | 9.06327 | 5474 ft | 224 kts | 250° |
| 2026-04-16 11:43 | 50.16564 | 9.04044 | 5424 ft | 223 kts | 250° |
| 2026-04-16 11:43 | 50.16031 | 9.01771 | 5363 ft | 224 kts | 250° |
| 2026-04-16 11:44 | 50.15507 | 8.99461 | 5314 ft | 228 kts | 251° |
| 2026-04-16 11:44 | 50.14997 | 8.97170 | 5265 ft | 215 kts | 251° |
| 2026-04-16 11:44 | 50.14509 | 8.95055 | 5178 ft | 199 kts | 250° |
| 2026-04-16 11:44 | 50.14055 | 8.93127 | 5095 ft | 179 kts | 250° |
| 2026-04-16 11:45 | 50.13634 | 8.91350 | 5020 ft | 173 kts | 250° |
| 2026-04-16 11:45 | 50.13219 | 8.89602 | 5002 ft | 173 kts | 250° |
| 2026-04-16 11:45 | 50.12797 | 8.87825 | 5004 ft | 176 kts | 250° |
| 2026-04-16 11:45 | 50.12371 | 8.86036 | 4993 ft | 176 kts | 250° |
| 2026-04-16 11:46 | 50.11939 | 8.84219 | 4744 ft | 180 kts | 250° |
| 2026-04-16 11:46 | 50.11513 | 8.82432 | 4496 ft | 173 kts | 250° |
| 2026-04-16 11:46 | 50.11099 | 8.80692 | 4261 ft | 170 kts | 250° |
| 2026-04-16 11:46 | 50.10692 | 8.78984 | 4024 ft | 165 kts | 250° |
| 2026-04-16 11:47 | 50.10294 | 8.77312 | 3808 ft | 164 kts | 250° |
| 2026-04-16 11:47 | 50.09891 | 8.75622 | 3571 ft | 168 kts | 249° |
| 2026-04-16 11:47 | 50.09490 | 8.73940 | 3320 ft | 167 kts | 250° |
| 2026-04-16 11:47 | 50.09090 | 8.72260 | 3069 ft | 165 kts | 249° |
| 2026-04-16 11:48 | 50.08691 | 8.70587 | 2843 ft | 166 kts | 250° |
| 2026-04-16 11:48 | 50.08291 | 8.68920 | 2593 ft | 163 kts | 249° |
| 2026-04-16 11:48 | 50.07899 | 8.67264 | 2366 ft | 162 kts | 250° |
| 2026-04-16 11:48 | 50.07511 | 8.65636 | 2129 ft | 159 kts | 249° |
| 2026-04-16 11:49 | 50.07126 | 8.64021 | 1901 ft | 159 kts | 249° |
| 2026-04-16 11:49 | 50.06739 | 8.62399 | 1680 ft | 160 kts | 249° |
| 2026-04-16 11:49 | 50.06344 | 8.60752 | 1459 ft | 166 kts | 248° |
| 2026-04-16 11:49 | 50.05939 | 8.59025 | 1196 ft | 173 kts | 249° |
| 2026-04-16 11:50 | 50.05522 | 8.57262 | 946 ft | 173 kts | 248° |
| 2026-04-16 11:50 | 50.05115 | 8.55517 | 711 ft | 171 kts | 248° |
| 2026-04-16 11:50 | 50.04681 | 8.53789 | 485 ft | 170 kts | 248° |
| 2026-04-16 11:50 | 50.04303 | 8.52172 | 356 ft | 146 kts | 244° |
| 2026-04-16 11:51 | 50.04006 | 8.50960 | 328 ft | 93 kts | 250° |
| 2026-04-16 11:51 | 50.03851 | 8.50321 | 321 ft | 21 kts | 249° |
| 2026-04-16 11:51 | 50.03786 | 8.50047 | 319 ft | 28 kts | 250° |
| 2026-04-16 11:51 | 50.03745 | 8.49873 | 318 ft | 13 kts | 248° |
| 2026-04-16 11:52 | 50.03680 | 8.49783 | 318 ft | 13 kts | 200° |
| 2026-04-16 11:52 | 50.03622 | 8.49780 | 318 ft | 7 kts | 168° |
| 2026-04-16 11:52 | 50.03579 | 8.49818 | 319 ft | 7 kts | 135° |
| 2026-04-16 11:52 | 50.03571 | 8.49834 | 320 ft | 0 kts | 127° |
| 2026-04-16 11:54 | 50.03569 | 8.49839 | 319 ft | 3 kts | 125° |
| 2026-04-16 11:54 | 50.03551 | 8.49912 | 323 ft | 9 kts | 97° |
| 2026-04-16 11:54 | 50.03563 | 8.50011 | 323 ft | 10 kts | 71° |
| 2026-04-16 11:54 | 50.03586 | 8.50110 | 323 ft | 10 kts | 70° |
| 2026-04-16 11:55 | 50.03610 | 8.50210 | 324 ft | 10 kts | 70° |
| 2026-04-16 11:55 | 50.03635 | 8.50314 | 329 ft | 10 kts | 69° |
| 2026-04-16 11:55 | 50.03660 | 8.50418 | 331 ft | 10 kts | 69° |
| 2026-04-16 11:55 | 50.03685 | 8.50522 | 328 ft | 10 kts | 69° |
| 2026-04-16 11:56 | 50.03711 | 8.50629 | 330 ft | 11 kts | 70° |
| 2026-04-16 11:56 | 50.03738 | 8.50745 | 333 ft | 12 kts | 69° |
| 2026-04-16 11:56 | 50.03763 | 8.50873 | 333 ft | 13 kts | 86° |
| 2026-04-16 11:56 | 50.03740 | 8.51007 | 352 ft | 13 kts | 115° |
| 2026-04-16 11:57 | 50.03700 | 8.51133 | 355 ft | 13 kts | 116° |
| 2026-04-16 11:57 | 50.03660 | 8.51258 | 359 ft | 13 kts | 116° |
| 2026-04-16 11:57 | 50.03634 | 8.51341 | 361 ft | 13 kts | 116° |
| 2026-04-16 11:57 | 50.03594 | 8.51466 | 367 ft | 13 kts | 116° |
| 2026-04-16 11:58 | 50.03545 | 8.51622 | 368 ft | 8 kts | 116° |
| 2026-04-16 11:58 | 50.03527 | 8.51682 | 363 ft | 10 kts | 114° |
| 2026-04-16 11:58 | 50.03512 | 8.51800 | 363 ft | 12 kts | 86° |
| 2026-04-16 11:58 | 50.03521 | 8.51931 | 362 ft | 11 kts | 80° |
| 2026-04-16 11:59 | 50.03533 | 8.52058 | 357 ft | 10 kts | 83° |
| 2026-04-16 11:59 | 50.03541 | 8.52175 | 352 ft | 12 kts | 83° |
| 2026-04-16 11:59 | 50.03553 | 8.52308 | 350 ft | 13 kts | 76° |
| 2026-04-16 11:59 | 50.03581 | 8.52437 | 353 ft | 13 kts | 70° |
| 2026-04-16 12:00 | 50.03596 | 8.52572 | 351 ft | 13 kts | 85° |
| 2026-04-16 12:00 | 50.03614 | 8.52705 | 351 ft | 13 kts | 70° |
| 2026-04-16 12:00 | 50.03632 | 8.52794 | 348 ft | 8 kts | 84° |
| 2026-04-16 12:00 | 50.03605 | 8.52867 | 351 ft | 8 kts | 135° |
| 2026-04-16 12:01 | 50.03586 | 8.52948 | 349 ft | 8 kts | 86° |
| 2026-04-16 12:01 | 50.03601 | 8.53033 | 350 ft | 8 kts | 69° |
| 2026-04-16 12:01 | 50.03620 | 8.53108 | 354 ft | 6 kts | 63° |
| 2026-04-16 12:02 | 50.03692 | 8.53109 | 353 ft | 6 kts | 339° |
| 2026-04-16 12:02 | 50.03709 | 8.53099 | 351 ft | 0 kts | 339° |
| 2026-04-16 12:02 | 50.03711 | 8.53098 | 351 ft | 0 kts | 339° |
| 2026-04-16 12:02 | 50.03713 | 8.53097 | 356 ft | 0 kts | 339° |
| 2026-04-16 12:03 | 50.03716 | 8.53095 | 355 ft | 0 kts | 340° |
| 2026-04-16 12:03 | 50.03717 | 8.53094 | 355 ft | 0 kts | 340° |